<?xml version="1.0" encoding="UTF-8" standalone="no" ?>
<gpx xmlns="http://www.topografix.com/GPX/1/1" xmlns:xsi="http://www.w3.org/2001/XMLSchema-instance" xsi:schemaLocation="http://www.topografix.com/GPX/1/1 http://www.topografix.com/GPX/1/1/gpx.xsd" version="1.1" creator="VisuGPX - https://www.visugpx.com">
  <metadata>
    <name>Monampteuil-2022-03-07 13:46</name>
    <desc><![CDATA[File with points/tracks from Locus Map/4.6.1]]></desc>
  </metadata>
  <trk>
    <name><![CDATA[2022-03-07 13:46]]></name>
    <extensions>
      <line xmlns="http://www.topografix.com/GPX/gpx_style/0/2">
        <color>0000FF</color>
        <opacity>0.59</opacity>
        <width>6.0</width>
      </line>
    </extensions>
    <trkseg>
      <trkpt lat="49.47071" lon="3.55211">
        <ele>65.21</ele>
        <time>2022-03-07T12:46:43.000Z</time>
      </trkpt>
      <trkpt lat="49.47067" lon="3.5521">
        <ele>65.21</ele>
        <time>2022-03-07T12:46:53.000Z</time>
      </trkpt>
      <trkpt lat="49.47067" lon="3.55211">
        <ele>65.21</ele>
        <time>2022-03-07T12:47:14.000Z</time>
      </trkpt>
      <trkpt lat="49.47066" lon="3.55211">
        <ele>65.21</ele>
        <time>2022-03-07T12:47:40.000Z</time>
      </trkpt>
      <trkpt lat="49.47066" lon="3.55209">
        <ele>65.21</ele>
        <time>2022-03-07T12:47:52.000Z</time>
      </trkpt>
      <trkpt lat="49.47066" lon="3.55207">
        <ele>65.21</ele>
        <time>2022-03-07T12:48:02.000Z</time>
      </trkpt>
      <trkpt lat="49.47065" lon="3.55206">
        <ele>65.21</ele>
        <time>2022-03-07T12:48:32.000Z</time>
      </trkpt>
      <trkpt lat="49.47065" lon="3.55205">
        <ele>65.21</ele>
        <time>2022-03-07T12:48:42.000Z</time>
      </trkpt>
      <trkpt lat="49.47065" lon="3.55206">
        <ele>65.21</ele>
        <time>2022-03-07T12:48:52.000Z</time>
      </trkpt>
      <trkpt lat="49.47065" lon="3.55208">
        <ele>65.21</ele>
        <time>2022-03-07T12:49:16.000Z</time>
      </trkpt>
      <trkpt lat="49.47065" lon="3.55206">
        <ele>65.21</ele>
        <time>2022-03-07T12:49:38.000Z</time>
      </trkpt>
      <trkpt lat="49.47065" lon="3.55203">
        <ele>65.21</ele>
        <time>2022-03-07T12:49:48.000Z</time>
      </trkpt>
      <trkpt lat="49.47064" lon="3.55199">
        <ele>65.21</ele>
        <time>2022-03-07T12:49:58.000Z</time>
      </trkpt>
      <trkpt lat="49.47065" lon="3.552">
        <ele>65.21</ele>
        <time>2022-03-07T12:50:12.000Z</time>
      </trkpt>
      <trkpt lat="49.47064" lon="3.55205">
        <ele>65.21</ele>
        <time>2022-03-07T12:50:22.000Z</time>
      </trkpt>
      <trkpt lat="49.47065" lon="3.55208">
        <ele>65.21</ele>
        <time>2022-03-07T12:50:32.000Z</time>
      </trkpt>
      <trkpt lat="49.47066" lon="3.5521">
        <ele>65.21</ele>
        <time>2022-03-07T12:50:46.000Z</time>
      </trkpt>
      <trkpt lat="49.47067" lon="3.55212">
        <ele>65.21</ele>
        <time>2022-03-07T12:50:56.000Z</time>
      </trkpt>
      <trkpt lat="49.47068" lon="3.5521">
        <ele>65.21</ele>
        <time>2022-03-07T12:52:00.000Z</time>
      </trkpt>
      <trkpt lat="49.47069" lon="3.55209">
        <ele>65.21</ele>
        <time>2022-03-07T12:53:20.000Z</time>
      </trkpt>
      <trkpt lat="49.47068" lon="3.5521">
        <ele>65.21</ele>
        <time>2022-03-07T12:53:30.000Z</time>
      </trkpt>
      <trkpt lat="49.47071" lon="3.55213">
        <ele>65.21</ele>
        <time>2022-03-07T12:53:40.000Z</time>
      </trkpt>
      <trkpt lat="49.47075" lon="3.55211">
        <ele>65.21</ele>
        <time>2022-03-07T12:53:50.000Z</time>
      </trkpt>
      <trkpt lat="49.47076" lon="3.55212">
        <ele>45.91</ele>
        <time>2022-03-07T12:55:50.000Z</time>
      </trkpt>
      <trkpt lat="49.47078" lon="3.55221">
        <ele>45.91</ele>
        <time>2022-03-07T12:56:00.000Z</time>
      </trkpt>
      <trkpt lat="49.47077" lon="3.55225">
        <ele>31.31</ele>
        <time>2022-03-07T12:56:41.000Z</time>
      </trkpt>
      <trkpt lat="49.47076" lon="3.55216">
        <ele>31.31</ele>
        <time>2022-03-07T12:56:51.000Z</time>
      </trkpt>
      <trkpt lat="49.47074" lon="3.55212">
        <ele>65.21</ele>
        <time>2022-03-07T12:57:01.000Z</time>
      </trkpt>
      <trkpt lat="49.47073" lon="3.55211">
        <ele>65.21</ele>
        <time>2022-03-07T12:57:11.000Z</time>
      </trkpt>
      <trkpt lat="49.47073" lon="3.55209">
        <ele>65.21</ele>
        <time>2022-03-07T12:57:22.000Z</time>
      </trkpt>
      <trkpt lat="49.47074" lon="3.55211">
        <ele>65.21</ele>
        <time>2022-03-07T12:57:53.000Z</time>
      </trkpt>
      <trkpt lat="49.47074" lon="3.55212">
        <ele>31.31</ele>
        <time>2022-03-07T12:58:07.000Z</time>
      </trkpt>
      <trkpt lat="49.47073" lon="3.55207">
        <ele>65.18</ele>
        <time>2022-03-07T12:58:17.000Z</time>
      </trkpt>
      <trkpt lat="49.47071" lon="3.55205">
        <ele>31.31</ele>
        <time>2022-03-07T12:58:27.000Z</time>
      </trkpt>
      <trkpt lat="49.4707" lon="3.55206">
        <ele>65.21</ele>
        <time>2022-03-07T12:58:42.000Z</time>
      </trkpt>
      <trkpt lat="49.4707" lon="3.55207">
        <ele>65.21</ele>
        <time>2022-03-07T12:58:52.000Z</time>
      </trkpt>
      <trkpt lat="49.47069" lon="3.55209">
        <ele>31.31</ele>
        <time>2022-03-07T13:01:34.000Z</time>
      </trkpt>
      <trkpt lat="49.47071" lon="3.55209">
        <ele>65.21</ele>
        <time>2022-03-07T13:02:02.000Z</time>
      </trkpt>
      <trkpt lat="49.47072" lon="3.55207">
        <ele>65.21</ele>
        <time>2022-03-07T13:02:12.000Z</time>
      </trkpt>
      <trkpt lat="49.47072" lon="3.55206">
        <ele>65.21</ele>
        <time>2022-03-07T13:02:22.000Z</time>
      </trkpt>
      <trkpt lat="49.47073" lon="3.55207">
        <ele>65.21</ele>
        <time>2022-03-07T13:03:02.000Z</time>
      </trkpt>
      <trkpt lat="49.47073" lon="3.55215">
        <ele>65.21</ele>
        <time>2022-03-07T13:03:12.000Z</time>
      </trkpt>
      <trkpt lat="49.47079" lon="3.55226">
        <ele>65.21</ele>
        <time>2022-03-07T13:03:22.000Z</time>
      </trkpt>
      <trkpt lat="49.47078" lon="3.55246">
        <ele>65.21</ele>
        <time>2022-03-07T13:03:31.024Z</time>
      </trkpt>
      <trkpt lat="49.47081" lon="3.55257">
        <ele>65.21</ele>
        <time>2022-03-07T13:03:41.000Z</time>
      </trkpt>
      <trkpt lat="49.47088" lon="3.55261">
        <ele>31.35</ele>
        <time>2022-03-07T13:03:50.081Z</time>
      </trkpt>
      <trkpt lat="49.47094" lon="3.55262">
        <ele>31.31</ele>
        <time>2022-03-07T13:03:59.421Z</time>
      </trkpt>
      <trkpt lat="49.47104" lon="3.55268">
        <ele>31.31</ele>
        <time>2022-03-07T13:04:08.677Z</time>
      </trkpt>
      <trkpt lat="49.47115" lon="3.55272">
        <ele>31.31</ele>
        <time>2022-03-07T13:04:18.147Z</time>
      </trkpt>
      <trkpt lat="49.47123" lon="3.55276">
        <ele>31.31</ele>
        <time>2022-03-07T13:04:27.621Z</time>
      </trkpt>
      <trkpt lat="49.4713" lon="3.5528">
        <ele>31.31</ele>
        <time>2022-03-07T13:04:36.662Z</time>
      </trkpt>
      <trkpt lat="49.4714" lon="3.55285">
        <ele>31.31</ele>
        <time>2022-03-07T13:04:46.067Z</time>
      </trkpt>
      <trkpt lat="49.47149" lon="3.5529">
        <ele>31.31</ele>
        <time>2022-03-07T13:04:55.576Z</time>
      </trkpt>
      <trkpt lat="49.47156" lon="3.55295">
        <ele>34.96</ele>
        <time>2022-03-07T13:05:05.000Z</time>
      </trkpt>
      <trkpt lat="49.47167" lon="3.553">
        <ele>31.31</ele>
        <time>2022-03-07T13:05:14.404Z</time>
      </trkpt>
      <trkpt lat="49.47177" lon="3.55304">
        <ele>31.31</ele>
        <time>2022-03-07T13:05:23.699Z</time>
      </trkpt>
      <trkpt lat="49.47184" lon="3.5531">
        <ele>31.31</ele>
        <time>2022-03-07T13:05:33.000Z</time>
      </trkpt>
      <trkpt lat="49.47193" lon="3.55318">
        <ele>31.31</ele>
        <time>2022-03-07T13:05:42.219Z</time>
      </trkpt>
      <trkpt lat="49.47203" lon="3.55322">
        <ele>31.31</ele>
        <time>2022-03-07T13:05:51.522Z</time>
      </trkpt>
      <trkpt lat="49.47212" lon="3.55325">
        <ele>31.31</ele>
        <time>2022-03-07T13:06:01.000Z</time>
      </trkpt>
      <trkpt lat="49.47223" lon="3.55329">
        <ele>31.31</ele>
        <time>2022-03-07T13:06:10.020Z</time>
      </trkpt>
      <trkpt lat="49.47233" lon="3.5533">
        <ele>31.31</ele>
        <time>2022-03-07T13:06:19.157Z</time>
      </trkpt>
      <trkpt lat="49.47242" lon="3.55332">
        <ele>31.31</ele>
        <time>2022-03-07T13:06:28.523Z</time>
      </trkpt>
      <trkpt lat="49.47253" lon="3.55337">
        <ele>31.31</ele>
        <time>2022-03-07T13:06:39.000Z</time>
      </trkpt>
      <trkpt lat="49.47262" lon="3.55342">
        <ele>31.31</ele>
        <time>2022-03-07T13:06:48.026Z</time>
      </trkpt>
      <trkpt lat="49.47272" lon="3.55346">
        <ele>31.31</ele>
        <time>2022-03-07T13:06:57.263Z</time>
      </trkpt>
      <trkpt lat="49.47282" lon="3.55349">
        <ele>31.31</ele>
        <time>2022-03-07T13:07:06.542Z</time>
      </trkpt>
      <trkpt lat="49.47291" lon="3.55353">
        <ele>31.31</ele>
        <time>2022-03-07T13:07:15.604Z</time>
      </trkpt>
      <trkpt lat="49.47301" lon="3.55358">
        <ele>31.31</ele>
        <time>2022-03-07T13:07:25.665Z</time>
      </trkpt>
      <trkpt lat="49.47309" lon="3.55363">
        <ele>62.39</ele>
        <time>2022-03-07T13:07:35.000Z</time>
      </trkpt>
      <trkpt lat="49.47319" lon="3.55366">
        <ele>72.57</ele>
        <time>2022-03-07T13:07:44.482Z</time>
      </trkpt>
      <trkpt lat="49.4733" lon="3.5537">
        <ele>72.09</ele>
        <time>2022-03-07T13:07:53.957Z</time>
      </trkpt>
      <trkpt lat="49.47341" lon="3.55372">
        <ele>71.72</ele>
        <time>2022-03-07T13:08:03.484Z</time>
      </trkpt>
      <trkpt lat="49.47348" lon="3.55377">
        <ele>71.65</ele>
        <time>2022-03-07T13:08:13.000Z</time>
      </trkpt>
      <trkpt lat="49.47359" lon="3.55383">
        <ele>71.28</ele>
        <time>2022-03-07T13:08:22.327Z</time>
      </trkpt>
      <trkpt lat="49.47368" lon="3.5539">
        <ele>70.62</ele>
        <time>2022-03-07T13:08:32.360Z</time>
      </trkpt>
      <trkpt lat="49.47375" lon="3.55397">
        <ele>69.96</ele>
        <time>2022-03-07T13:08:41.384Z</time>
      </trkpt>
      <trkpt lat="49.47381" lon="3.55408">
        <ele>69.69</ele>
        <time>2022-03-07T13:08:50.909Z</time>
      </trkpt>
      <trkpt lat="49.47384" lon="3.55424">
        <ele>69.49</ele>
        <time>2022-03-07T13:09:00.418Z</time>
      </trkpt>
      <trkpt lat="49.47392" lon="3.55433">
        <ele>69.12</ele>
        <time>2022-03-07T13:09:09.463Z</time>
      </trkpt>
      <trkpt lat="49.47399" lon="3.5544">
        <ele>68.83</ele>
        <time>2022-03-07T13:09:19.000Z</time>
      </trkpt>
      <trkpt lat="49.47406" lon="3.55449">
        <ele>68.61</ele>
        <time>2022-03-07T13:09:28.379Z</time>
      </trkpt>
      <trkpt lat="49.47414" lon="3.55457">
        <ele>68.42</ele>
        <time>2022-03-07T13:09:38.000Z</time>
      </trkpt>
      <trkpt lat="49.47422" lon="3.5547">
        <ele>68.43</ele>
        <time>2022-03-07T13:09:48.000Z</time>
      </trkpt>
      <trkpt lat="49.47426" lon="3.55485">
        <ele>68.49</ele>
        <time>2022-03-07T13:09:57.128Z</time>
      </trkpt>
      <trkpt lat="49.47429" lon="3.55503">
        <ele>69.01</ele>
        <time>2022-03-07T13:10:06.642Z</time>
      </trkpt>
      <trkpt lat="49.47433" lon="3.55518">
        <ele>69.75</ele>
        <time>2022-03-07T13:10:15.670Z</time>
      </trkpt>
      <trkpt lat="49.47437" lon="3.55533">
        <ele>70.52</ele>
        <time>2022-03-07T13:10:25.060Z</time>
      </trkpt>
      <trkpt lat="49.47437" lon="3.55551">
        <ele>71.28</ele>
        <time>2022-03-07T13:10:35.000Z</time>
      </trkpt>
      <trkpt lat="49.47437" lon="3.55569">
        <ele>71.99</ele>
        <time>2022-03-07T13:10:44.301Z</time>
      </trkpt>
      <trkpt lat="49.47438" lon="3.55587">
        <ele>73.15</ele>
        <time>2022-03-07T13:10:54.000Z</time>
      </trkpt>
      <trkpt lat="49.4744" lon="3.55606">
        <ele>74.31</ele>
        <time>2022-03-07T13:11:04.000Z</time>
      </trkpt>
      <trkpt lat="49.47442" lon="3.55625">
        <ele>75.06</ele>
        <time>2022-03-07T13:11:14.000Z</time>
      </trkpt>
      <trkpt lat="49.47439" lon="3.55642">
        <ele>75.97</ele>
        <time>2022-03-07T13:11:23.443Z</time>
      </trkpt>
      <trkpt lat="49.47435" lon="3.55656">
        <ele>76.68</ele>
        <time>2022-03-07T13:11:32.538Z</time>
      </trkpt>
      <trkpt lat="49.47432" lon="3.5567">
        <ele>76.68</ele>
        <time>2022-03-07T13:11:42.662Z</time>
      </trkpt>
      <trkpt lat="49.4743" lon="3.55682">
        <ele>76.81</ele>
        <time>2022-03-07T13:11:52.000Z</time>
      </trkpt>
      <trkpt lat="49.47429" lon="3.55696">
        <ele>76.84</ele>
        <time>2022-03-07T13:12:01.001Z</time>
      </trkpt>
      <trkpt lat="49.47424" lon="3.55712">
        <ele>77.3</ele>
        <time>2022-03-07T13:12:10.057Z</time>
      </trkpt>
      <trkpt lat="49.47419" lon="3.55728">
        <ele>77.39</ele>
        <time>2022-03-07T13:12:20.000Z</time>
      </trkpt>
      <trkpt lat="49.47418" lon="3.55733">
        <ele>77.26</ele>
        <time>2022-03-07T13:12:30.000Z</time>
      </trkpt>
      <trkpt lat="49.47417" lon="3.55737">
        <ele>77.22</ele>
        <time>2022-03-07T13:12:39.459Z</time>
      </trkpt>
      <trkpt lat="49.47418" lon="3.5574">
        <ele>77.31</ele>
        <time>2022-03-07T13:12:49.000Z</time>
      </trkpt>
      <trkpt lat="49.47417" lon="3.55741">
        <ele>77.58</ele>
        <time>2022-03-07T13:13:01.000Z</time>
      </trkpt>
      <trkpt lat="49.4741" lon="3.55735">
        <ele>78.15</ele>
        <time>2022-03-07T13:13:10.366Z</time>
      </trkpt>
      <trkpt lat="49.47402" lon="3.55738">
        <ele>78.36</ele>
        <time>2022-03-07T13:13:19.682Z</time>
      </trkpt>
      <trkpt lat="49.47398" lon="3.55733">
        <ele>78.8</ele>
        <time>2022-03-07T13:13:29.182Z</time>
      </trkpt>
      <trkpt lat="49.47392" lon="3.55732">
        <ele>78.98</ele>
        <time>2022-03-07T13:13:39.000Z</time>
      </trkpt>
      <trkpt lat="49.47386" lon="3.5574">
        <ele>78.9</ele>
        <time>2022-03-07T13:13:48.498Z</time>
      </trkpt>
      <trkpt lat="49.47376" lon="3.55746">
        <ele>79.03</ele>
        <time>2022-03-07T13:13:57.940Z</time>
      </trkpt>
      <trkpt lat="49.47369" lon="3.55753">
        <ele>78.6</ele>
        <time>2022-03-07T13:14:07.117Z</time>
      </trkpt>
      <trkpt lat="49.47363" lon="3.55765">
        <ele>78.06</ele>
        <time>2022-03-07T13:14:16.547Z</time>
      </trkpt>
      <trkpt lat="49.47366" lon="3.55766">
        <ele>77.89</ele>
        <time>2022-03-07T13:14:26.000Z</time>
      </trkpt>
      <trkpt lat="49.47366" lon="3.55764">
        <ele>77.42</ele>
        <time>2022-03-07T13:14:35.164Z</time>
      </trkpt>
      <trkpt lat="49.47366" lon="3.55763">
        <ele>77.4</ele>
        <time>2022-03-07T13:14:45.000Z</time>
      </trkpt>
      <trkpt lat="49.47365" lon="3.55762">
        <ele>77.76</ele>
        <time>2022-03-07T13:15:03.000Z</time>
      </trkpt>
      <trkpt lat="49.47363" lon="3.55759">
        <ele>78.01</ele>
        <time>2022-03-07T13:15:13.000Z</time>
      </trkpt>
      <trkpt lat="49.47366" lon="3.5576">
        <ele>77.85</ele>
        <time>2022-03-07T13:16:04.000Z</time>
      </trkpt>
      <trkpt lat="49.47366" lon="3.55761">
        <ele>77.43</ele>
        <time>2022-03-07T13:16:13.478Z</time>
      </trkpt>
      <trkpt lat="49.47353" lon="3.55766">
        <ele>76.86</ele>
        <time>2022-03-07T13:16:23.605Z</time>
      </trkpt>
      <trkpt lat="49.47348" lon="3.55771">
        <ele>76.61</ele>
        <time>2022-03-07T13:16:33.119Z</time>
      </trkpt>
      <trkpt lat="49.47339" lon="3.5578">
        <ele>71.08</ele>
        <time>2022-03-07T13:16:42.639Z</time>
      </trkpt>
      <trkpt lat="49.47335" lon="3.55789">
        <ele>69.41</ele>
        <time>2022-03-07T13:16:52.124Z</time>
      </trkpt>
      <trkpt lat="49.47329" lon="3.55796">
        <ele>69.41</ele>
        <time>2022-03-07T13:17:02.000Z</time>
      </trkpt>
      <trkpt lat="49.47322" lon="3.55805">
        <ele>69.41</ele>
        <time>2022-03-07T13:17:12.000Z</time>
      </trkpt>
      <trkpt lat="49.47312" lon="3.55811">
        <ele>69.41</ele>
        <time>2022-03-07T13:17:21.320Z</time>
      </trkpt>
      <trkpt lat="49.47304" lon="3.55816">
        <ele>69.41</ele>
        <time>2022-03-07T13:17:30.818Z</time>
      </trkpt>
      <trkpt lat="49.47299" lon="3.55826">
        <ele>69.41</ele>
        <time>2022-03-07T13:17:40.000Z</time>
      </trkpt>
      <trkpt lat="49.47301" lon="3.55838">
        <ele>69.41</ele>
        <time>2022-03-07T13:17:49.098Z</time>
      </trkpt>
      <trkpt lat="49.47305" lon="3.5585">
        <ele>69.41</ele>
        <time>2022-03-07T13:17:58.120Z</time>
      </trkpt>
      <trkpt lat="49.47311" lon="3.55867">
        <ele>69.41</ele>
        <time>2022-03-07T13:18:07.386Z</time>
      </trkpt>
      <trkpt lat="49.47315" lon="3.55882">
        <ele>69.41</ele>
        <time>2022-03-07T13:18:17.000Z</time>
      </trkpt>
      <trkpt lat="49.47322" lon="3.55895">
        <ele>69.41</ele>
        <time>2022-03-07T13:18:26.300Z</time>
      </trkpt>
      <trkpt lat="49.47331" lon="3.55905">
        <ele>69.41</ele>
        <time>2022-03-07T13:18:36.000Z</time>
      </trkpt>
      <trkpt lat="49.4734" lon="3.55919">
        <ele>69.41</ele>
        <time>2022-03-07T13:18:46.000Z</time>
      </trkpt>
      <trkpt lat="49.47347" lon="3.55937">
        <ele>69.41</ele>
        <time>2022-03-07T13:18:55.372Z</time>
      </trkpt>
      <trkpt lat="49.47353" lon="3.55951">
        <ele>69.41</ele>
        <time>2022-03-07T13:19:04.400Z</time>
      </trkpt>
      <trkpt lat="49.47355" lon="3.5596">
        <ele>83.87</ele>
        <time>2022-03-07T13:19:15.000Z</time>
      </trkpt>
      <trkpt lat="49.47355" lon="3.55963">
        <ele>86.52</ele>
        <time>2022-03-07T13:19:32.000Z</time>
      </trkpt>
      <trkpt lat="49.4736" lon="3.55971">
        <ele>88.02</ele>
        <time>2022-03-07T13:19:41.110Z</time>
      </trkpt>
      <trkpt lat="49.47366" lon="3.55976">
        <ele>88.9</ele>
        <time>2022-03-07T13:19:50.332Z</time>
      </trkpt>
      <trkpt lat="49.47373" lon="3.55987">
        <ele>89.17</ele>
        <time>2022-03-07T13:19:59.380Z</time>
      </trkpt>
      <trkpt lat="49.47379" lon="3.56001">
        <ele>89.66</ele>
        <time>2022-03-07T13:20:08.604Z</time>
      </trkpt>
      <trkpt lat="49.47383" lon="3.56016">
        <ele>89.9</ele>
        <time>2022-03-07T13:20:17.947Z</time>
      </trkpt>
      <trkpt lat="49.47389" lon="3.56028">
        <ele>90.19</ele>
        <time>2022-03-07T13:20:27.000Z</time>
      </trkpt>
      <trkpt lat="49.47395" lon="3.5604">
        <ele>90.49</ele>
        <time>2022-03-07T13:20:36.367Z</time>
      </trkpt>
      <trkpt lat="49.47402" lon="3.56052">
        <ele>90.56</ele>
        <time>2022-03-07T13:20:46.000Z</time>
      </trkpt>
      <trkpt lat="49.4741" lon="3.56062">
        <ele>90.69</ele>
        <time>2022-03-07T13:20:55.260Z</time>
      </trkpt>
      <trkpt lat="49.47416" lon="3.56072">
        <ele>91.43</ele>
        <time>2022-03-07T13:21:04.782Z</time>
      </trkpt>
      <trkpt lat="49.47423" lon="3.56084">
        <ele>92.58</ele>
        <time>2022-03-07T13:21:14.540Z</time>
      </trkpt>
      <trkpt lat="49.47431" lon="3.56097">
        <ele>93.52</ele>
        <time>2022-03-07T13:21:24.000Z</time>
      </trkpt>
      <trkpt lat="49.47435" lon="3.56111">
        <ele>94.14</ele>
        <time>2022-03-07T13:21:34.000Z</time>
      </trkpt>
      <trkpt lat="49.4744" lon="3.56123">
        <ele>94.8</ele>
        <time>2022-03-07T13:21:43.201Z</time>
      </trkpt>
      <trkpt lat="49.47446" lon="3.56134">
        <ele>94.82</ele>
        <time>2022-03-07T13:21:52.384Z</time>
      </trkpt>
      <trkpt lat="49.47454" lon="3.5614">
        <ele>95.06</ele>
        <time>2022-03-07T13:22:01.684Z</time>
      </trkpt>
      <trkpt lat="49.47462" lon="3.56149">
        <ele>95.44</ele>
        <time>2022-03-07T13:22:11.000Z</time>
      </trkpt>
      <trkpt lat="49.47469" lon="3.5616">
        <ele>95.44</ele>
        <time>2022-03-07T13:22:20.480Z</time>
      </trkpt>
      <trkpt lat="49.47475" lon="3.56171">
        <ele>95.19</ele>
        <time>2022-03-07T13:22:29.608Z</time>
      </trkpt>
      <trkpt lat="49.47482" lon="3.56185">
        <ele>94.68</ele>
        <time>2022-03-07T13:22:40.000Z</time>
      </trkpt>
      <trkpt lat="49.47489" lon="3.56196">
        <ele>94.03</ele>
        <time>2022-03-07T13:22:49.258Z</time>
      </trkpt>
      <trkpt lat="49.47496" lon="3.56207">
        <ele>93.62</ele>
        <time>2022-03-07T13:22:58.427Z</time>
      </trkpt>
      <trkpt lat="49.47502" lon="3.5622">
        <ele>93.65</ele>
        <time>2022-03-07T13:23:07.602Z</time>
      </trkpt>
      <trkpt lat="49.47513" lon="3.56226">
        <ele>93.97</ele>
        <time>2022-03-07T13:23:17.418Z</time>
      </trkpt>
      <trkpt lat="49.47524" lon="3.56221">
        <ele>94.37</ele>
        <time>2022-03-07T13:23:26.579Z</time>
      </trkpt>
      <trkpt lat="49.47537" lon="3.56217">
        <ele>94.92</ele>
        <time>2022-03-07T13:23:36.000Z</time>
      </trkpt>
      <trkpt lat="49.47549" lon="3.56215">
        <ele>95.4</ele>
        <time>2022-03-07T13:23:45.444Z</time>
      </trkpt>
      <trkpt lat="49.4756" lon="3.56215">
        <ele>96.03</ele>
        <time>2022-03-07T13:23:54.498Z</time>
      </trkpt>
      <trkpt lat="49.47571" lon="3.56214">
        <ele>96.95</ele>
        <time>2022-03-07T13:24:03.568Z</time>
      </trkpt>
      <trkpt lat="49.47583" lon="3.56212">
        <ele>97.9</ele>
        <time>2022-03-07T13:24:12.698Z</time>
      </trkpt>
      <trkpt lat="49.47594" lon="3.56212">
        <ele>98.84</ele>
        <time>2022-03-07T13:24:21.866Z</time>
      </trkpt>
      <trkpt lat="49.47604" lon="3.56208">
        <ele>99.45</ele>
        <time>2022-03-07T13:24:30.945Z</time>
      </trkpt>
      <trkpt lat="49.47613" lon="3.56199">
        <ele>100.26</ele>
        <time>2022-03-07T13:24:40.526Z</time>
      </trkpt>
      <trkpt lat="49.47625" lon="3.5619">
        <ele>100.89</ele>
        <time>2022-03-07T13:24:49.646Z</time>
      </trkpt>
      <trkpt lat="49.47636" lon="3.56177">
        <ele>101.88</ele>
        <time>2022-03-07T13:24:58.757Z</time>
      </trkpt>
      <trkpt lat="49.47646" lon="3.56174">
        <ele>102.74</ele>
        <time>2022-03-07T13:25:08.163Z</time>
      </trkpt>
      <trkpt lat="49.47654" lon="3.56181">
        <ele>103.23</ele>
        <time>2022-03-07T13:25:17.618Z</time>
      </trkpt>
      <trkpt lat="49.47664" lon="3.56184">
        <ele>102.89</ele>
        <time>2022-03-07T13:25:27.404Z</time>
      </trkpt>
      <trkpt lat="49.47675" lon="3.56187">
        <ele>102.26</ele>
        <time>2022-03-07T13:25:37.422Z</time>
      </trkpt>
      <trkpt lat="49.47685" lon="3.5619">
        <ele>101.55</ele>
        <time>2022-03-07T13:25:47.485Z</time>
      </trkpt>
      <trkpt lat="49.47697" lon="3.5619">
        <ele>101.09</ele>
        <time>2022-03-07T13:25:57.000Z</time>
      </trkpt>
      <trkpt lat="49.4771" lon="3.56191">
        <ele>100.8</ele>
        <time>2022-03-07T13:26:06.563Z</time>
      </trkpt>
      <trkpt lat="49.47722" lon="3.56194">
        <ele>100.66</ele>
        <time>2022-03-07T13:26:16.000Z</time>
      </trkpt>
      <trkpt lat="49.47734" lon="3.56198">
        <ele>100.88</ele>
        <time>2022-03-07T13:26:25.186Z</time>
      </trkpt>
      <trkpt lat="49.47747" lon="3.562">
        <ele>101.81</ele>
        <time>2022-03-07T13:26:34.483Z</time>
      </trkpt>
      <trkpt lat="49.47758" lon="3.56203">
        <ele>102.03</ele>
        <time>2022-03-07T13:26:44.000Z</time>
      </trkpt>
      <trkpt lat="49.47769" lon="3.56206">
        <ele>102.5</ele>
        <time>2022-03-07T13:26:53.047Z</time>
      </trkpt>
      <trkpt lat="49.47779" lon="3.56211">
        <ele>103.2</ele>
        <time>2022-03-07T13:27:02.442Z</time>
      </trkpt>
      <trkpt lat="49.47789" lon="3.56216">
        <ele>103.65</ele>
        <time>2022-03-07T13:27:11.867Z</time>
      </trkpt>
      <trkpt lat="49.47797" lon="3.56217">
        <ele>103.38</ele>
        <time>2022-03-07T13:27:20.922Z</time>
      </trkpt>
      <trkpt lat="49.47805" lon="3.56218">
        <ele>102.87</ele>
        <time>2022-03-07T13:27:30.000Z</time>
      </trkpt>
      <trkpt lat="49.47815" lon="3.56219">
        <ele>101.99</ele>
        <time>2022-03-07T13:27:39.542Z</time>
      </trkpt>
      <trkpt lat="49.47824" lon="3.56221">
        <ele>100.73</ele>
        <time>2022-03-07T13:27:49.000Z</time>
      </trkpt>
      <trkpt lat="49.47826" lon="3.56222">
        <ele>100.21</ele>
        <time>2022-03-07T13:27:59.000Z</time>
      </trkpt>
      <trkpt lat="49.47825" lon="3.56222">
        <ele>99.91</ele>
        <time>2022-03-07T13:28:11.000Z</time>
      </trkpt>
      <trkpt lat="49.47826" lon="3.56222">
        <ele>99.38</ele>
        <time>2022-03-07T13:28:32.000Z</time>
      </trkpt>
      <trkpt lat="49.47836" lon="3.56231">
        <ele>99.42</ele>
        <time>2022-03-07T13:28:41.324Z</time>
      </trkpt>
      <trkpt lat="49.47845" lon="3.56238">
        <ele>99.69</ele>
        <time>2022-03-07T13:28:50.365Z</time>
      </trkpt>
      <trkpt lat="49.47856" lon="3.5625">
        <ele>99.71</ele>
        <time>2022-03-07T13:28:59.717Z</time>
      </trkpt>
      <trkpt lat="49.47862" lon="3.56267">
        <ele>99.57</ele>
        <time>2022-03-07T13:29:09.444Z</time>
      </trkpt>
      <trkpt lat="49.47868" lon="3.56279">
        <ele>99.46</ele>
        <time>2022-03-07T13:29:19.000Z</time>
      </trkpt>
      <trkpt lat="49.47878" lon="3.56287">
        <ele>99.28</ele>
        <time>2022-03-07T13:29:28.083Z</time>
      </trkpt>
      <trkpt lat="49.47889" lon="3.56283">
        <ele>99.27</ele>
        <time>2022-03-07T13:29:37.376Z</time>
      </trkpt>
      <trkpt lat="49.47899" lon="3.56276">
        <ele>99.82</ele>
        <time>2022-03-07T13:29:46.715Z</time>
      </trkpt>
      <trkpt lat="49.47911" lon="3.56268">
        <ele>100.84</ele>
        <time>2022-03-07T13:29:55.983Z</time>
      </trkpt>
      <trkpt lat="49.47922" lon="3.56262">
        <ele>101.8</ele>
        <time>2022-03-07T13:30:05.000Z</time>
      </trkpt>
      <trkpt lat="49.47932" lon="3.56254">
        <ele>102.49</ele>
        <time>2022-03-07T13:30:14.304Z</time>
      </trkpt>
      <trkpt lat="49.47943" lon="3.56247">
        <ele>103.04</ele>
        <time>2022-03-07T13:30:23.677Z</time>
      </trkpt>
      <trkpt lat="49.47956" lon="3.56238">
        <ele>103.18</ele>
        <time>2022-03-07T13:30:33.145Z</time>
      </trkpt>
      <trkpt lat="49.47969" lon="3.56229">
        <ele>103</ele>
        <time>2022-03-07T13:30:42.776Z</time>
      </trkpt>
      <trkpt lat="49.4798" lon="3.56222">
        <ele>102.78</ele>
        <time>2022-03-07T13:30:52.000Z</time>
      </trkpt>
      <trkpt lat="49.47993" lon="3.56215">
        <ele>102.31</ele>
        <time>2022-03-07T13:31:01.341Z</time>
      </trkpt>
      <trkpt lat="49.48003" lon="3.56208">
        <ele>102.08</ele>
        <time>2022-03-07T13:31:10.718Z</time>
      </trkpt>
      <trkpt lat="49.4801" lon="3.56197">
        <ele>102.06</ele>
        <time>2022-03-07T13:31:19.827Z</time>
      </trkpt>
      <trkpt lat="49.48017" lon="3.56192">
        <ele>102.13</ele>
        <time>2022-03-07T13:31:28.899Z</time>
      </trkpt>
      <trkpt lat="49.48025" lon="3.5619">
        <ele>102.34</ele>
        <time>2022-03-07T13:31:38.164Z</time>
      </trkpt>
      <trkpt lat="49.48033" lon="3.56187">
        <ele>102.4</ele>
        <time>2022-03-07T13:31:47.218Z</time>
      </trkpt>
      <trkpt lat="49.4804" lon="3.56181">
        <ele>102.1</ele>
        <time>2022-03-07T13:31:56.324Z</time>
      </trkpt>
      <trkpt lat="49.4805" lon="3.56172">
        <ele>101.69</ele>
        <time>2022-03-07T13:32:06.000Z</time>
      </trkpt>
      <trkpt lat="49.48059" lon="3.56166">
        <ele>101.6</ele>
        <time>2022-03-07T13:32:15.137Z</time>
      </trkpt>
      <trkpt lat="49.48066" lon="3.56163">
        <ele>101.98</ele>
        <time>2022-03-07T13:32:24.329Z</time>
      </trkpt>
      <trkpt lat="49.48075" lon="3.56159">
        <ele>102.48</ele>
        <time>2022-03-07T13:32:34.000Z</time>
      </trkpt>
      <trkpt lat="49.48085" lon="3.56155">
        <ele>103.42</ele>
        <time>2022-03-07T13:32:43.019Z</time>
      </trkpt>
      <trkpt lat="49.48095" lon="3.56147">
        <ele>104.38</ele>
        <time>2022-03-07T13:32:52.565Z</time>
      </trkpt>
      <trkpt lat="49.48104" lon="3.56141">
        <ele>105.33</ele>
        <time>2022-03-07T13:33:01.703Z</time>
      </trkpt>
      <trkpt lat="49.48115" lon="3.56135">
        <ele>105.91</ele>
        <time>2022-03-07T13:33:11.243Z</time>
      </trkpt>
      <trkpt lat="49.48125" lon="3.56131">
        <ele>106.89</ele>
        <time>2022-03-07T13:33:21.000Z</time>
      </trkpt>
      <trkpt lat="49.48134" lon="3.56128">
        <ele>107.69</ele>
        <time>2022-03-07T13:33:30.400Z</time>
      </trkpt>
      <trkpt lat="49.48145" lon="3.56127">
        <ele>107.96</ele>
        <time>2022-03-07T13:33:40.000Z</time>
      </trkpt>
      <trkpt lat="49.48155" lon="3.56127">
        <ele>107.94</ele>
        <time>2022-03-07T13:33:49.307Z</time>
      </trkpt>
      <trkpt lat="49.48167" lon="3.56126">
        <ele>107.95</ele>
        <time>2022-03-07T13:33:58.407Z</time>
      </trkpt>
      <trkpt lat="49.4818" lon="3.56126">
        <ele>107.81</ele>
        <time>2022-03-07T13:34:07.603Z</time>
      </trkpt>
      <trkpt lat="49.4819" lon="3.56126">
        <ele>107.38</ele>
        <time>2022-03-07T13:34:16.657Z</time>
      </trkpt>
      <trkpt lat="49.482" lon="3.56128">
        <ele>106.8</ele>
        <time>2022-03-07T13:34:26.000Z</time>
      </trkpt>
      <trkpt lat="49.48211" lon="3.56128">
        <ele>106.22</ele>
        <time>2022-03-07T13:34:35.377Z</time>
      </trkpt>
      <trkpt lat="49.48222" lon="3.56129">
        <ele>105.49</ele>
        <time>2022-03-07T13:34:44.400Z</time>
      </trkpt>
      <trkpt lat="49.48233" lon="3.56132">
        <ele>105.44</ele>
        <time>2022-03-07T13:34:53.918Z</time>
      </trkpt>
      <trkpt lat="49.48247" lon="3.56136">
        <ele>106.49</ele>
        <time>2022-03-07T13:35:03.564Z</time>
      </trkpt>
      <trkpt lat="49.4826" lon="3.56139">
        <ele>107.75</ele>
        <time>2022-03-07T13:35:13.000Z</time>
      </trkpt>
      <trkpt lat="49.48274" lon="3.56138">
        <ele>108.69</ele>
        <time>2022-03-07T13:35:22.367Z</time>
      </trkpt>
      <trkpt lat="49.48286" lon="3.56138">
        <ele>109.57</ele>
        <time>2022-03-07T13:35:31.499Z</time>
      </trkpt>
      <trkpt lat="49.48297" lon="3.56141">
        <ele>110.5</ele>
        <time>2022-03-07T13:35:41.000Z</time>
      </trkpt>
      <trkpt lat="49.48306" lon="3.56142">
        <ele>111.45</ele>
        <time>2022-03-07T13:35:50.588Z</time>
      </trkpt>
      <trkpt lat="49.48317" lon="3.5614">
        <ele>112.54</ele>
        <time>2022-03-07T13:36:00.484Z</time>
      </trkpt>
      <trkpt lat="49.48327" lon="3.5614">
        <ele>113.42</ele>
        <time>2022-03-07T13:36:09.526Z</time>
      </trkpt>
      <trkpt lat="49.48336" lon="3.56142">
        <ele>113.89</ele>
        <time>2022-03-07T13:36:18.901Z</time>
      </trkpt>
      <trkpt lat="49.48347" lon="3.56148">
        <ele>114.18</ele>
        <time>2022-03-07T13:36:28.085Z</time>
      </trkpt>
      <trkpt lat="49.48354" lon="3.56153">
        <ele>114.46</ele>
        <time>2022-03-07T13:36:37.639Z</time>
      </trkpt>
      <trkpt lat="49.48362" lon="3.5616">
        <ele>114.48</ele>
        <time>2022-03-07T13:36:46.839Z</time>
      </trkpt>
      <trkpt lat="49.48371" lon="3.56166">
        <ele>114.34</ele>
        <time>2022-03-07T13:36:56.000Z</time>
      </trkpt>
      <trkpt lat="49.48382" lon="3.56171">
        <ele>114.5</ele>
        <time>2022-03-07T13:37:06.199Z</time>
      </trkpt>
      <trkpt lat="49.48391" lon="3.56174">
        <ele>115.19</ele>
        <time>2022-03-07T13:37:15.204Z</time>
      </trkpt>
      <trkpt lat="49.48399" lon="3.56177">
        <ele>115.92</ele>
        <time>2022-03-07T13:37:24.207Z</time>
      </trkpt>
      <trkpt lat="49.48407" lon="3.56182">
        <ele>116.44</ele>
        <time>2022-03-07T13:37:33.402Z</time>
      </trkpt>
      <trkpt lat="49.48415" lon="3.5619">
        <ele>116.24</ele>
        <time>2022-03-07T13:37:42.693Z</time>
      </trkpt>
      <trkpt lat="49.48423" lon="3.56198">
        <ele>115.72</ele>
        <time>2022-03-07T13:37:52.000Z</time>
      </trkpt>
      <trkpt lat="49.4843" lon="3.56204">
        <ele>115.59</ele>
        <time>2022-03-07T13:38:02.000Z</time>
      </trkpt>
      <trkpt lat="49.48439" lon="3.56208">
        <ele>115.76</ele>
        <time>2022-03-07T13:38:11.406Z</time>
      </trkpt>
      <trkpt lat="49.48448" lon="3.5621">
        <ele>116.1</ele>
        <time>2022-03-07T13:38:20.503Z</time>
      </trkpt>
      <trkpt lat="49.48455" lon="3.56209">
        <ele>116.87</ele>
        <time>2022-03-07T13:38:29.583Z</time>
      </trkpt>
      <trkpt lat="49.48463" lon="3.56205">
        <ele>117.86</ele>
        <time>2022-03-07T13:38:38.617Z</time>
      </trkpt>
      <trkpt lat="49.48473" lon="3.56202">
        <ele>118.92</ele>
        <time>2022-03-07T13:38:48.159Z</time>
      </trkpt>
      <trkpt lat="49.48484" lon="3.562">
        <ele>110.1</ele>
        <time>2022-03-07T13:38:57.466Z</time>
      </trkpt>
      <trkpt lat="49.48494" lon="3.56197">
        <ele>110.1</ele>
        <time>2022-03-07T13:39:06.584Z</time>
      </trkpt>
      <trkpt lat="49.48503" lon="3.56199">
        <ele>110.1</ele>
        <time>2022-03-07T13:39:16.124Z</time>
      </trkpt>
      <trkpt lat="49.4851" lon="3.56203">
        <ele>110.1</ele>
        <time>2022-03-07T13:39:26.000Z</time>
      </trkpt>
      <trkpt lat="49.48518" lon="3.56208">
        <ele>110.1</ele>
        <time>2022-03-07T13:39:35.079Z</time>
      </trkpt>
      <trkpt lat="49.48526" lon="3.56213">
        <ele>110.1</ele>
        <time>2022-03-07T13:39:44.372Z</time>
      </trkpt>
      <trkpt lat="49.48534" lon="3.56217">
        <ele>110.1</ele>
        <time>2022-03-07T13:39:53.385Z</time>
      </trkpt>
      <trkpt lat="49.48543" lon="3.56222">
        <ele>110.1</ele>
        <time>2022-03-07T13:40:02.905Z</time>
      </trkpt>
      <trkpt lat="49.48553" lon="3.56229">
        <ele>110.1</ele>
        <time>2022-03-07T13:40:12.358Z</time>
      </trkpt>
      <trkpt lat="49.48561" lon="3.5624">
        <ele>110.1</ele>
        <time>2022-03-07T13:40:21.621Z</time>
      </trkpt>
      <trkpt lat="49.48565" lon="3.56253">
        <ele>82.4</ele>
        <time>2022-03-07T13:40:30.999Z</time>
      </trkpt>
      <trkpt lat="49.48567" lon="3.5627">
        <ele>82.4</ele>
        <time>2022-03-07T13:40:40.358Z</time>
      </trkpt>
      <trkpt lat="49.48571" lon="3.56287">
        <ele>96.08</ele>
        <time>2022-03-07T13:40:50.368Z</time>
      </trkpt>
      <trkpt lat="49.48571" lon="3.56303">
        <ele>82.41</ele>
        <time>2022-03-07T13:40:59.802Z</time>
      </trkpt>
      <trkpt lat="49.48573" lon="3.56318">
        <ele>82.4</ele>
        <time>2022-03-07T13:41:09.140Z</time>
      </trkpt>
      <trkpt lat="49.48578" lon="3.5633">
        <ele>96.3</ele>
        <time>2022-03-07T13:41:18.265Z</time>
      </trkpt>
      <trkpt lat="49.48584" lon="3.56342">
        <ele>96.3</ele>
        <time>2022-03-07T13:41:27.279Z</time>
      </trkpt>
      <trkpt lat="49.48591" lon="3.56354">
        <ele>96.3</ele>
        <time>2022-03-07T13:41:36.426Z</time>
      </trkpt>
      <trkpt lat="49.486" lon="3.56366">
        <ele>96.3</ele>
        <time>2022-03-07T13:41:46.465Z</time>
      </trkpt>
      <trkpt lat="49.48611" lon="3.56373">
        <ele>82.4</ele>
        <time>2022-03-07T13:41:55.627Z</time>
      </trkpt>
      <trkpt lat="49.48619" lon="3.56377">
        <ele>96.3</ele>
        <time>2022-03-07T13:42:05.999Z</time>
      </trkpt>
      <trkpt lat="49.48618" lon="3.5638">
        <ele>96.3</ele>
        <time>2022-03-07T13:42:15.999Z</time>
      </trkpt>
      <trkpt lat="49.48618" lon="3.56383">
        <ele>82.62</ele>
        <time>2022-03-07T13:42:25.999Z</time>
      </trkpt>
      <trkpt lat="49.48618" lon="3.56381">
        <ele>96.2</ele>
        <time>2022-03-07T13:43:04.999Z</time>
      </trkpt>
      <trkpt lat="49.48623" lon="3.56388">
        <ele>96.3</ele>
        <time>2022-03-07T13:43:14.239Z</time>
      </trkpt>
      <trkpt lat="49.48617" lon="3.56407">
        <ele>82.4</ele>
        <time>2022-03-07T13:43:23.999Z</time>
      </trkpt>
      <trkpt lat="49.48616" lon="3.56412">
        <ele>82.4</ele>
        <time>2022-03-07T13:43:33.999Z</time>
      </trkpt>
      <trkpt lat="49.48614" lon="3.56413">
        <ele>82.4</ele>
        <time>2022-03-07T13:43:43.381Z</time>
      </trkpt>
      <trkpt lat="49.48614" lon="3.56417">
        <ele>82.4</ele>
        <time>2022-03-07T13:43:52.603Z</time>
      </trkpt>
      <trkpt lat="49.48612" lon="3.56427">
        <ele>82.4</ele>
        <time>2022-03-07T13:44:01.999Z</time>
      </trkpt>
      <trkpt lat="49.4861" lon="3.56442">
        <ele>82.4</ele>
        <time>2022-03-07T13:44:11.602Z</time>
      </trkpt>
      <trkpt lat="49.48606" lon="3.56453">
        <ele>82.4</ele>
        <time>2022-03-07T13:44:20.956Z</time>
      </trkpt>
      <trkpt lat="49.48609" lon="3.56463">
        <ele>82.4</ele>
        <time>2022-03-07T13:44:30.999Z</time>
      </trkpt>
      <trkpt lat="49.48611" lon="3.56476">
        <ele>82.4</ele>
        <time>2022-03-07T13:44:40.543Z</time>
      </trkpt>
      <trkpt lat="49.48614" lon="3.56487">
        <ele>127.74</ele>
        <time>2022-03-07T13:44:49.999Z</time>
      </trkpt>
      <trkpt lat="49.48618" lon="3.56495">
        <ele>128.39</ele>
        <time>2022-03-07T13:44:59.060Z</time>
      </trkpt>
      <trkpt lat="49.48621" lon="3.56505">
        <ele>130.04</ele>
        <time>2022-03-07T13:45:08.321Z</time>
      </trkpt>
      <trkpt lat="49.48622" lon="3.56517">
        <ele>132.58</ele>
        <time>2022-03-07T13:45:18.557Z</time>
      </trkpt>
      <trkpt lat="49.48623" lon="3.56528">
        <ele>135.13</ele>
        <time>2022-03-07T13:45:28.678Z</time>
      </trkpt>
      <trkpt lat="49.48628" lon="3.5654">
        <ele>138.89</ele>
        <time>2022-03-07T13:45:38.538Z</time>
      </trkpt>
      <trkpt lat="49.48636" lon="3.56552">
        <ele>142.38</ele>
        <time>2022-03-07T13:45:48.999Z</time>
      </trkpt>
      <trkpt lat="49.4864" lon="3.56564">
        <ele>144.74</ele>
        <time>2022-03-07T13:45:58.999Z</time>
      </trkpt>
      <trkpt lat="49.48642" lon="3.56575">
        <ele>146.2</ele>
        <time>2022-03-07T13:46:08.422Z</time>
      </trkpt>
      <trkpt lat="49.48643" lon="3.5658">
        <ele>146.74</ele>
        <time>2022-03-07T13:46:17.527Z</time>
      </trkpt>
      <trkpt lat="49.48643" lon="3.56584">
        <ele>146.92</ele>
        <time>2022-03-07T13:46:26.999Z</time>
      </trkpt>
      <trkpt lat="49.4864" lon="3.56594">
        <ele>147.33</ele>
        <time>2022-03-07T13:46:36.422Z</time>
      </trkpt>
      <trkpt lat="49.48642" lon="3.56605">
        <ele>148.08</ele>
        <time>2022-03-07T13:46:46.119Z</time>
      </trkpt>
      <trkpt lat="49.48647" lon="3.56612">
        <ele>148.87</ele>
        <time>2022-03-07T13:46:55.163Z</time>
      </trkpt>
      <trkpt lat="49.48648" lon="3.56619">
        <ele>149.18</ele>
        <time>2022-03-07T13:47:04.439Z</time>
      </trkpt>
      <trkpt lat="49.48647" lon="3.56636">
        <ele>149.9</ele>
        <time>2022-03-07T13:47:14.504Z</time>
      </trkpt>
      <trkpt lat="49.48648" lon="3.5665">
        <ele>150.88</ele>
        <time>2022-03-07T13:47:23.999Z</time>
      </trkpt>
      <trkpt lat="49.48651" lon="3.56661">
        <ele>152.51</ele>
        <time>2022-03-07T13:47:33.242Z</time>
      </trkpt>
      <trkpt lat="49.48648" lon="3.56671">
        <ele>154.98</ele>
        <time>2022-03-07T13:47:42.581Z</time>
      </trkpt>
      <trkpt lat="49.48647" lon="3.56675">
        <ele>156.8</ele>
        <time>2022-03-07T13:47:51.999Z</time>
      </trkpt>
      <trkpt lat="49.48644" lon="3.5668">
        <ele>158.45</ele>
        <time>2022-03-07T13:48:01.316Z</time>
      </trkpt>
      <trkpt lat="49.48637" lon="3.56684">
        <ele>159.18</ele>
        <time>2022-03-07T13:48:10.999Z</time>
      </trkpt>
      <trkpt lat="49.48632" lon="3.5669">
        <ele>159.25</ele>
        <time>2022-03-07T13:48:20.403Z</time>
      </trkpt>
      <trkpt lat="49.48627" lon="3.56697">
        <ele>159.07</ele>
        <time>2022-03-07T13:48:29.760Z</time>
      </trkpt>
      <trkpt lat="49.48624" lon="3.56706">
        <ele>158.52</ele>
        <time>2022-03-07T13:48:39.100Z</time>
      </trkpt>
      <trkpt lat="49.4862" lon="3.5671">
        <ele>158.03</ele>
        <time>2022-03-07T13:48:48.385Z</time>
      </trkpt>
      <trkpt lat="49.48621" lon="3.56721">
        <ele>158.01</ele>
        <time>2022-03-07T13:48:57.469Z</time>
      </trkpt>
      <trkpt lat="49.48625" lon="3.56733">
        <ele>158.19</ele>
        <time>2022-03-07T13:49:06.999Z</time>
      </trkpt>
      <trkpt lat="49.48623" lon="3.56748">
        <ele>159.09</ele>
        <time>2022-03-07T13:49:16.562Z</time>
      </trkpt>
      <trkpt lat="49.48621" lon="3.56757">
        <ele>159.27</ele>
        <time>2022-03-07T13:49:25.999Z</time>
      </trkpt>
      <trkpt lat="49.48618" lon="3.56762">
        <ele>159.27</ele>
        <time>2022-03-07T13:49:35.586Z</time>
      </trkpt>
      <trkpt lat="49.48616" lon="3.56775">
        <ele>160.02</ele>
        <time>2022-03-07T13:49:45.160Z</time>
      </trkpt>
      <trkpt lat="49.48615" lon="3.56783">
        <ele>161.27</ele>
        <time>2022-03-07T13:49:54.225Z</time>
      </trkpt>
      <trkpt lat="49.48616" lon="3.5679">
        <ele>163.18</ele>
        <time>2022-03-07T13:50:03.999Z</time>
      </trkpt>
      <trkpt lat="49.4862" lon="3.568">
        <ele>164.01</ele>
        <time>2022-03-07T13:50:13.081Z</time>
      </trkpt>
      <trkpt lat="49.48614" lon="3.56816">
        <ele>164.71</ele>
        <time>2022-03-07T13:50:22.158Z</time>
      </trkpt>
      <trkpt lat="49.48607" lon="3.56836">
        <ele>165.64</ele>
        <time>2022-03-07T13:50:31.352Z</time>
      </trkpt>
      <trkpt lat="49.48607" lon="3.56854">
        <ele>166.43</ele>
        <time>2022-03-07T13:50:40.999Z</time>
      </trkpt>
      <trkpt lat="49.4861" lon="3.56868">
        <ele>167.25</ele>
        <time>2022-03-07T13:50:50.186Z</time>
      </trkpt>
      <trkpt lat="49.48606" lon="3.56867">
        <ele>167.72</ele>
        <time>2022-03-07T13:50:59.999Z</time>
      </trkpt>
      <trkpt lat="49.48607" lon="3.56866">
        <ele>168.37</ele>
        <time>2022-03-07T13:51:12.999Z</time>
      </trkpt>
      <trkpt lat="49.48611" lon="3.56874">
        <ele>169.25</ele>
        <time>2022-03-07T13:51:23.263Z</time>
      </trkpt>
      <trkpt lat="49.4861" lon="3.56879">
        <ele>169.64</ele>
        <time>2022-03-07T13:51:32.999Z</time>
      </trkpt>
      <trkpt lat="49.48609" lon="3.56877">
        <ele>170.23</ele>
        <time>2022-03-07T13:51:42.707Z</time>
      </trkpt>
      <trkpt lat="49.48613" lon="3.56866">
        <ele>170.82</ele>
        <time>2022-03-07T13:51:52.999Z</time>
      </trkpt>
      <trkpt lat="49.48612" lon="3.56863">
        <ele>171.08</ele>
        <time>2022-03-07T13:52:02.999Z</time>
      </trkpt>
      <trkpt lat="49.48612" lon="3.56856">
        <ele>171.2</ele>
        <time>2022-03-07T13:52:12.999Z</time>
      </trkpt>
      <trkpt lat="49.48612" lon="3.56855">
        <ele>171.43</ele>
        <time>2022-03-07T13:52:23.999Z</time>
      </trkpt>
      <trkpt lat="49.48613" lon="3.56855">
        <ele>171.3</ele>
        <time>2022-03-07T13:52:36.999Z</time>
      </trkpt>
      <trkpt lat="49.4861" lon="3.56858">
        <ele>169.86</ele>
        <time>2022-03-07T13:53:25.999Z</time>
      </trkpt>
      <trkpt lat="49.48607" lon="3.56862">
        <ele>169.79</ele>
        <time>2022-03-07T13:53:35.999Z</time>
      </trkpt>
      <trkpt lat="49.48607" lon="3.56863">
        <ele>169.89</ele>
        <time>2022-03-07T13:54:05.320Z</time>
      </trkpt>
      <trkpt lat="49.48605" lon="3.56874">
        <ele>169.65</ele>
        <time>2022-03-07T13:54:14.999Z</time>
      </trkpt>
      <trkpt lat="49.48605" lon="3.56891">
        <ele>169.04</ele>
        <time>2022-03-07T13:54:24.004Z</time>
      </trkpt>
      <trkpt lat="49.48605" lon="3.56904">
        <ele>168.58</ele>
        <time>2022-03-07T13:54:33.081Z</time>
      </trkpt>
      <trkpt lat="49.48609" lon="3.56921">
        <ele>168.45</ele>
        <time>2022-03-07T13:54:43.343Z</time>
      </trkpt>
      <trkpt lat="49.48614" lon="3.56938">
        <ele>168.55</ele>
        <time>2022-03-07T13:54:52.379Z</time>
      </trkpt>
      <trkpt lat="49.48615" lon="3.56956">
        <ele>168.93</ele>
        <time>2022-03-07T13:55:01.941Z</time>
      </trkpt>
      <trkpt lat="49.48617" lon="3.56973">
        <ele>169.04</ele>
        <time>2022-03-07T13:55:11.464Z</time>
      </trkpt>
      <trkpt lat="49.48618" lon="3.56988">
        <ele>169.08</ele>
        <time>2022-03-07T13:55:20.528Z</time>
      </trkpt>
      <trkpt lat="49.48621" lon="3.57004">
        <ele>169.16</ele>
        <time>2022-03-07T13:55:29.657Z</time>
      </trkpt>
      <trkpt lat="49.48622" lon="3.57018">
        <ele>169.32</ele>
        <time>2022-03-07T13:55:38.763Z</time>
      </trkpt>
      <trkpt lat="49.48622" lon="3.57033">
        <ele>169.5</ele>
        <time>2022-03-07T13:55:47.999Z</time>
      </trkpt>
      <trkpt lat="49.48625" lon="3.57049">
        <ele>169.49</ele>
        <time>2022-03-07T13:55:57.999Z</time>
      </trkpt>
      <trkpt lat="49.48627" lon="3.57068">
        <ele>169.63</ele>
        <time>2022-03-07T13:56:07.999Z</time>
      </trkpt>
      <trkpt lat="49.48629" lon="3.57085">
        <ele>169.86</ele>
        <time>2022-03-07T13:56:17.384Z</time>
      </trkpt>
      <trkpt lat="49.48632" lon="3.571">
        <ele>169.98</ele>
        <time>2022-03-07T13:56:27.444Z</time>
      </trkpt>
      <trkpt lat="49.48632" lon="3.57115">
        <ele>170.18</ele>
        <time>2022-03-07T13:56:36.999Z</time>
      </trkpt>
      <trkpt lat="49.48635" lon="3.57134">
        <ele>170.4</ele>
        <time>2022-03-07T13:56:46.999Z</time>
      </trkpt>
      <trkpt lat="49.48636" lon="3.57153">
        <ele>170.59</ele>
        <time>2022-03-07T13:56:56.399Z</time>
      </trkpt>
      <trkpt lat="49.48637" lon="3.57168">
        <ele>170.68</ele>
        <time>2022-03-07T13:57:05.999Z</time>
      </trkpt>
      <trkpt lat="49.48638" lon="3.57186">
        <ele>170.73</ele>
        <time>2022-03-07T13:57:15.999Z</time>
      </trkpt>
      <trkpt lat="49.48637" lon="3.57206">
        <ele>170.52</ele>
        <time>2022-03-07T13:57:26.209Z</time>
      </trkpt>
      <trkpt lat="49.48635" lon="3.57221">
        <ele>169.75</ele>
        <time>2022-03-07T13:57:35.238Z</time>
      </trkpt>
      <trkpt lat="49.48635" lon="3.57234">
        <ele>169.12</ele>
        <time>2022-03-07T13:57:44.999Z</time>
      </trkpt>
      <trkpt lat="49.48636" lon="3.57252">
        <ele>168.67</ele>
        <time>2022-03-07T13:57:54.776Z</time>
      </trkpt>
      <trkpt lat="49.48641" lon="3.57268">
        <ele>168.71</ele>
        <time>2022-03-07T13:58:04.239Z</time>
      </trkpt>
      <trkpt lat="49.48645" lon="3.57285">
        <ele>168.89</ele>
        <time>2022-03-07T13:58:13.665Z</time>
      </trkpt>
      <trkpt lat="49.48644" lon="3.57303">
        <ele>168.86</ele>
        <time>2022-03-07T13:58:22.999Z</time>
      </trkpt>
      <trkpt lat="49.48646" lon="3.57321">
        <ele>169.13</ele>
        <time>2022-03-07T13:58:32.639Z</time>
      </trkpt>
      <trkpt lat="49.48648" lon="3.57338">
        <ele>169.37</ele>
        <time>2022-03-07T13:58:41.999Z</time>
      </trkpt>
      <trkpt lat="49.48648" lon="3.57356">
        <ele>169.66</ele>
        <time>2022-03-07T13:58:51.321Z</time>
      </trkpt>
      <trkpt lat="49.48647" lon="3.5737">
        <ele>170.06</ele>
        <time>2022-03-07T13:59:01.478Z</time>
      </trkpt>
      <trkpt lat="49.48643" lon="3.57384">
        <ele>170.38</ele>
        <time>2022-03-07T13:59:10.497Z</time>
      </trkpt>
      <trkpt lat="49.4864" lon="3.57397">
        <ele>170.83</ele>
        <time>2022-03-07T13:59:19.920Z</time>
      </trkpt>
      <trkpt lat="49.48636" lon="3.5741">
        <ele>171.45</ele>
        <time>2022-03-07T13:59:29.424Z</time>
      </trkpt>
      <trkpt lat="49.48633" lon="3.57426">
        <ele>172.18</ele>
        <time>2022-03-07T13:59:38.482Z</time>
      </trkpt>
      <trkpt lat="49.4863" lon="3.57446">
        <ele>172.61</ele>
        <time>2022-03-07T13:59:48.999Z</time>
      </trkpt>
      <trkpt lat="49.48627" lon="3.57463">
        <ele>172.76</ele>
        <time>2022-03-07T13:59:58.464Z</time>
      </trkpt>
      <trkpt lat="49.48625" lon="3.57476">
        <ele>173.11</ele>
        <time>2022-03-07T14:00:07.510Z</time>
      </trkpt>
      <trkpt lat="49.4862" lon="3.57493">
        <ele>173.34</ele>
        <time>2022-03-07T14:00:16.999Z</time>
      </trkpt>
      <trkpt lat="49.48615" lon="3.57508">
        <ele>173.43</ele>
        <time>2022-03-07T14:00:26.330Z</time>
      </trkpt>
      <trkpt lat="49.48609" lon="3.57522">
        <ele>173.6</ele>
        <time>2022-03-07T14:00:35.378Z</time>
      </trkpt>
      <trkpt lat="49.48603" lon="3.57537">
        <ele>173.43</ele>
        <time>2022-03-07T14:00:44.999Z</time>
      </trkpt>
      <trkpt lat="49.48597" lon="3.57552">
        <ele>172.34</ele>
        <time>2022-03-07T14:00:55.340Z</time>
      </trkpt>
      <trkpt lat="49.48588" lon="3.57563">
        <ele>171.05</ele>
        <time>2022-03-07T14:01:04.522Z</time>
      </trkpt>
      <trkpt lat="49.4858" lon="3.57577">
        <ele>169.89</ele>
        <time>2022-03-07T14:01:14.376Z</time>
      </trkpt>
      <trkpt lat="49.48576" lon="3.57592">
        <ele>169.06</ele>
        <time>2022-03-07T14:01:23.479Z</time>
      </trkpt>
      <trkpt lat="49.48574" lon="3.57607">
        <ele>168.55</ele>
        <time>2022-03-07T14:01:32.999Z</time>
      </trkpt>
      <trkpt lat="49.4857" lon="3.5762">
        <ele>168.55</ele>
        <time>2022-03-07T14:01:42.341Z</time>
      </trkpt>
      <trkpt lat="49.48565" lon="3.57634">
        <ele>168.08</ele>
        <time>2022-03-07T14:01:51.999Z</time>
      </trkpt>
      <trkpt lat="49.48563" lon="3.57651">
        <ele>167.85</ele>
        <time>2022-03-07T14:02:01.757Z</time>
      </trkpt>
      <trkpt lat="49.4856" lon="3.57667">
        <ele>168.32</ele>
        <time>2022-03-07T14:02:10.999Z</time>
      </trkpt>
      <trkpt lat="49.48558" lon="3.57684">
        <ele>169.38</ele>
        <time>2022-03-07T14:02:20.363Z</time>
      </trkpt>
      <trkpt lat="49.4855" lon="3.57703">
        <ele>170.46</ele>
        <time>2022-03-07T14:02:30.266Z</time>
      </trkpt>
      <trkpt lat="49.48543" lon="3.5772">
        <ele>171.28</ele>
        <time>2022-03-07T14:02:39.522Z</time>
      </trkpt>
      <trkpt lat="49.48536" lon="3.57735">
        <ele>171.82</ele>
        <time>2022-03-07T14:02:48.816Z</time>
      </trkpt>
      <trkpt lat="49.4853" lon="3.57747">
        <ele>172.09</ele>
        <time>2022-03-07T14:02:57.921Z</time>
      </trkpt>
      <trkpt lat="49.48525" lon="3.57766">
        <ele>171.98</ele>
        <time>2022-03-07T14:03:07.144Z</time>
      </trkpt>
      <trkpt lat="49.48519" lon="3.57787">
        <ele>171.76</ele>
        <time>2022-03-07T14:03:16.702Z</time>
      </trkpt>
      <trkpt lat="49.48516" lon="3.57802">
        <ele>171.87</ele>
        <time>2022-03-07T14:03:25.999Z</time>
      </trkpt>
      <trkpt lat="49.4851" lon="3.57821">
        <ele>172.57</ele>
        <time>2022-03-07T14:03:35.068Z</time>
      </trkpt>
      <trkpt lat="49.48504" lon="3.57836">
        <ele>173.41</ele>
        <time>2022-03-07T14:03:44.283Z</time>
      </trkpt>
      <trkpt lat="49.48498" lon="3.57855">
        <ele>174.16</ele>
        <time>2022-03-07T14:03:53.385Z</time>
      </trkpt>
      <trkpt lat="49.48494" lon="3.57872">
        <ele>174.72</ele>
        <time>2022-03-07T14:04:02.999Z</time>
      </trkpt>
      <trkpt lat="49.48487" lon="3.57892">
        <ele>175.15</ele>
        <time>2022-03-07T14:04:12.464Z</time>
      </trkpt>
      <trkpt lat="49.4848" lon="3.57908">
        <ele>175.63</ele>
        <time>2022-03-07T14:04:21.999Z</time>
      </trkpt>
      <trkpt lat="49.48474" lon="3.57928">
        <ele>176.1</ele>
        <time>2022-03-07T14:04:31.999Z</time>
      </trkpt>
      <trkpt lat="49.48469" lon="3.57951">
        <ele>176.87</ele>
        <time>2022-03-07T14:04:41.999Z</time>
      </trkpt>
      <trkpt lat="49.48467" lon="3.57973">
        <ele>177.43</ele>
        <time>2022-03-07T14:04:51.418Z</time>
      </trkpt>
      <trkpt lat="49.48463" lon="3.57992">
        <ele>177.91</ele>
        <time>2022-03-07T14:05:00.985Z</time>
      </trkpt>
      <trkpt lat="49.48458" lon="3.58009">
        <ele>178.36</ele>
        <time>2022-03-07T14:05:10.999Z</time>
      </trkpt>
      <trkpt lat="49.4845" lon="3.58025">
        <ele>178.77</ele>
        <time>2022-03-07T14:05:20.184Z</time>
      </trkpt>
      <trkpt lat="49.48444" lon="3.58041">
        <ele>179.12</ele>
        <time>2022-03-07T14:05:29.238Z</time>
      </trkpt>
      <trkpt lat="49.48437" lon="3.58055">
        <ele>179.21</ele>
        <time>2022-03-07T14:05:38.367Z</time>
      </trkpt>
      <trkpt lat="49.48433" lon="3.58073">
        <ele>179.2</ele>
        <time>2022-03-07T14:05:48.481Z</time>
      </trkpt>
      <trkpt lat="49.48429" lon="3.58089">
        <ele>179.07</ele>
        <time>2022-03-07T14:05:57.504Z</time>
      </trkpt>
      <trkpt lat="49.48429" lon="3.58106">
        <ele>178.88</ele>
        <time>2022-03-07T14:06:06.999Z</time>
      </trkpt>
      <trkpt lat="49.48429" lon="3.58122">
        <ele>179.24</ele>
        <time>2022-03-07T14:06:16.356Z</time>
      </trkpt>
      <trkpt lat="49.48424" lon="3.58135">
        <ele>180.18</ele>
        <time>2022-03-07T14:06:25.838Z</time>
      </trkpt>
      <trkpt lat="49.48419" lon="3.5815">
        <ele>181.1</ele>
        <time>2022-03-07T14:06:34.999Z</time>
      </trkpt>
      <trkpt lat="49.48415" lon="3.58168">
        <ele>181.8</ele>
        <time>2022-03-07T14:06:44.458Z</time>
      </trkpt>
      <trkpt lat="49.48413" lon="3.58185">
        <ele>182.29</ele>
        <time>2022-03-07T14:06:54.223Z</time>
      </trkpt>
      <trkpt lat="49.48406" lon="3.58201">
        <ele>182.54</ele>
        <time>2022-03-07T14:07:03.546Z</time>
      </trkpt>
      <trkpt lat="49.484" lon="3.58209">
        <ele>182.86</ele>
        <time>2022-03-07T14:07:12.999Z</time>
      </trkpt>
      <trkpt lat="49.48398" lon="3.58209">
        <ele>182.91</ele>
        <time>2022-03-07T14:07:22.999Z</time>
      </trkpt>
      <trkpt lat="49.48399" lon="3.58208">
        <ele>182.91</ele>
        <time>2022-03-07T14:07:32.999Z</time>
      </trkpt>
      <trkpt lat="49.48399" lon="3.58206">
        <ele>187.04</ele>
        <time>2022-03-07T14:09:58.999Z</time>
      </trkpt>
      <trkpt lat="49.48397" lon="3.58198">
        <ele>187.25</ele>
        <time>2022-03-07T14:10:08.999Z</time>
      </trkpt>
      <trkpt lat="49.48395" lon="3.58192">
        <ele>186.79</ele>
        <time>2022-03-07T14:10:18.328Z</time>
      </trkpt>
      <trkpt lat="49.48391" lon="3.58179">
        <ele>184.86</ele>
        <time>2022-03-07T14:10:28.402Z</time>
      </trkpt>
      <trkpt lat="49.48385" lon="3.58165">
        <ele>183</ele>
        <time>2022-03-07T14:10:37.999Z</time>
      </trkpt>
      <trkpt lat="49.48377" lon="3.58148">
        <ele>181.01</ele>
        <time>2022-03-07T14:10:47.999Z</time>
      </trkpt>
      <trkpt lat="49.48372" lon="3.58135">
        <ele>178.31</ele>
        <time>2022-03-07T14:10:57.999Z</time>
      </trkpt>
      <trkpt lat="49.48365" lon="3.58124">
        <ele>175.79</ele>
        <time>2022-03-07T14:11:07.999Z</time>
      </trkpt>
      <trkpt lat="49.48355" lon="3.58118">
        <ele>174.6</ele>
        <time>2022-03-07T14:11:17.999Z</time>
      </trkpt>
      <trkpt lat="49.48344" lon="3.5811">
        <ele>174.49</ele>
        <time>2022-03-07T14:11:27.261Z</time>
      </trkpt>
      <trkpt lat="49.48335" lon="3.58102">
        <ele>174.86</ele>
        <time>2022-03-07T14:11:36.445Z</time>
      </trkpt>
      <trkpt lat="49.48324" lon="3.5809">
        <ele>175.32</ele>
        <time>2022-03-07T14:11:46.352Z</time>
      </trkpt>
      <trkpt lat="49.48314" lon="3.58079">
        <ele>175.37</ele>
        <time>2022-03-07T14:11:55.999Z</time>
      </trkpt>
      <trkpt lat="49.48304" lon="3.5807">
        <ele>175.19</ele>
        <time>2022-03-07T14:12:05.404Z</time>
      </trkpt>
      <trkpt lat="49.48296" lon="3.58062">
        <ele>174.85</ele>
        <time>2022-03-07T14:12:14.540Z</time>
      </trkpt>
      <trkpt lat="49.48287" lon="3.58053">
        <ele>174.58</ele>
        <time>2022-03-07T14:12:23.904Z</time>
      </trkpt>
      <trkpt lat="49.48278" lon="3.58042">
        <ele>174.52</ele>
        <time>2022-03-07T14:12:32.999Z</time>
      </trkpt>
      <trkpt lat="49.48269" lon="3.58033">
        <ele>174.79</ele>
        <time>2022-03-07T14:12:42.257Z</time>
      </trkpt>
      <trkpt lat="49.48262" lon="3.58028">
        <ele>174.84</ele>
        <time>2022-03-07T14:12:51.398Z</time>
      </trkpt>
      <trkpt lat="49.48255" lon="3.58021">
        <ele>174.45</ele>
        <time>2022-03-07T14:13:00.958Z</time>
      </trkpt>
      <trkpt lat="49.48245" lon="3.58022">
        <ele>173.38</ele>
        <time>2022-03-07T14:13:10.503Z</time>
      </trkpt>
      <trkpt lat="49.48236" lon="3.58025">
        <ele>172.15</ele>
        <time>2022-03-07T14:13:19.999Z</time>
      </trkpt>
      <trkpt lat="49.48228" lon="3.58029">
        <ele>171.07</ele>
        <time>2022-03-07T14:13:29.364Z</time>
      </trkpt>
      <trkpt lat="49.48217" lon="3.58029">
        <ele>169.69</ele>
        <time>2022-03-07T14:13:38.442Z</time>
      </trkpt>
      <trkpt lat="49.48206" lon="3.58026">
        <ele>168.13</ele>
        <time>2022-03-07T14:13:47.529Z</time>
      </trkpt>
      <trkpt lat="49.48195" lon="3.58025">
        <ele>166.68</ele>
        <time>2022-03-07T14:13:56.905Z</time>
      </trkpt>
      <trkpt lat="49.48188" lon="3.58027">
        <ele>165.35</ele>
        <time>2022-03-07T14:14:05.999Z</time>
      </trkpt>
      <trkpt lat="49.48178" lon="3.58028">
        <ele>164.66</ele>
        <time>2022-03-07T14:14:15.999Z</time>
      </trkpt>
      <trkpt lat="49.48167" lon="3.58025">
        <ele>164.76</ele>
        <time>2022-03-07T14:14:25.319Z</time>
      </trkpt>
      <trkpt lat="49.48158" lon="3.58024">
        <ele>163.91</ele>
        <time>2022-03-07T14:14:34.487Z</time>
      </trkpt>
      <trkpt lat="49.48149" lon="3.58028">
        <ele>162.56</ele>
        <time>2022-03-07T14:14:43.685Z</time>
      </trkpt>
      <trkpt lat="49.48143" lon="3.58038">
        <ele>160.65</ele>
        <time>2022-03-07T14:14:52.919Z</time>
      </trkpt>
      <trkpt lat="49.48135" lon="3.58046">
        <ele>158.63</ele>
        <time>2022-03-07T14:15:02.006Z</time>
      </trkpt>
      <trkpt lat="49.48126" lon="3.58061">
        <ele>156.87</ele>
        <time>2022-03-07T14:15:11.502Z</time>
      </trkpt>
      <trkpt lat="49.48118" lon="3.58073">
        <ele>156.65</ele>
        <time>2022-03-07T14:15:21.424Z</time>
      </trkpt>
      <trkpt lat="49.48108" lon="3.58078">
        <ele>157.14</ele>
        <time>2022-03-07T14:15:30.760Z</time>
      </trkpt>
      <trkpt lat="49.481" lon="3.58088">
        <ele>156.91</ele>
        <time>2022-03-07T14:15:40.339Z</time>
      </trkpt>
      <trkpt lat="49.4809" lon="3.58098">
        <ele>156.06</ele>
        <time>2022-03-07T14:15:49.999Z</time>
      </trkpt>
      <trkpt lat="49.48077" lon="3.58103">
        <ele>155.02</ele>
        <time>2022-03-07T14:15:59.401Z</time>
      </trkpt>
      <trkpt lat="49.48068" lon="3.58103">
        <ele>154.59</ele>
        <time>2022-03-07T14:16:08.999Z</time>
      </trkpt>
      <trkpt lat="49.48057" lon="3.58105">
        <ele>154.13</ele>
        <time>2022-03-07T14:16:18.445Z</time>
      </trkpt>
      <trkpt lat="49.48048" lon="3.58113">
        <ele>153.7</ele>
        <time>2022-03-07T14:16:27.823Z</time>
      </trkpt>
      <trkpt lat="49.4804" lon="3.58123">
        <ele>152.78</ele>
        <time>2022-03-07T14:16:36.903Z</time>
      </trkpt>
      <trkpt lat="49.48035" lon="3.58137">
        <ele>151.62</ele>
        <time>2022-03-07T14:16:45.999Z</time>
      </trkpt>
      <trkpt lat="49.48026" lon="3.58149">
        <ele>151.44</ele>
        <time>2022-03-07T14:16:55.303Z</time>
      </trkpt>
      <trkpt lat="49.48016" lon="3.58152">
        <ele>152.27</ele>
        <time>2022-03-07T14:17:04.641Z</time>
      </trkpt>
      <trkpt lat="49.48006" lon="3.58151">
        <ele>152.69</ele>
        <time>2022-03-07T14:17:13.744Z</time>
      </trkpt>
      <trkpt lat="49.47999" lon="3.5814">
        <ele>152.69</ele>
        <time>2022-03-07T14:17:23.260Z</time>
      </trkpt>
      <trkpt lat="49.47995" lon="3.58125">
        <ele>152.45</ele>
        <time>2022-03-07T14:17:32.999Z</time>
      </trkpt>
      <trkpt lat="49.47985" lon="3.58106">
        <ele>152.5</ele>
        <time>2022-03-07T14:17:43.999Z</time>
      </trkpt>
      <trkpt lat="49.47977" lon="3.58089">
        <ele>152.51</ele>
        <time>2022-03-07T14:17:53.999Z</time>
      </trkpt>
      <trkpt lat="49.47969" lon="3.58075">
        <ele>152.25</ele>
        <time>2022-03-07T14:18:03.999Z</time>
      </trkpt>
      <trkpt lat="49.47962" lon="3.58061">
        <ele>152.08</ele>
        <time>2022-03-07T14:18:13.358Z</time>
      </trkpt>
      <trkpt lat="49.47955" lon="3.58046">
        <ele>151.68</ele>
        <time>2022-03-07T14:18:22.398Z</time>
      </trkpt>
      <trkpt lat="49.47952" lon="3.58032">
        <ele>150.61</ele>
        <time>2022-03-07T14:18:31.826Z</time>
      </trkpt>
      <trkpt lat="49.4795" lon="3.58019">
        <ele>150.36</ele>
        <time>2022-03-07T14:18:41.206Z</time>
      </trkpt>
      <trkpt lat="49.47948" lon="3.58006">
        <ele>151.13</ele>
        <time>2022-03-07T14:18:50.565Z</time>
      </trkpt>
      <trkpt lat="49.47943" lon="3.5799">
        <ele>151.85</ele>
        <time>2022-03-07T14:18:59.999Z</time>
      </trkpt>
      <trkpt lat="49.47938" lon="3.57971">
        <ele>151.88</ele>
        <time>2022-03-07T14:19:09.424Z</time>
      </trkpt>
      <trkpt lat="49.47936" lon="3.57952">
        <ele>151.25</ele>
        <time>2022-03-07T14:19:19.276Z</time>
      </trkpt>
      <trkpt lat="49.47934" lon="3.57935">
        <ele>150.11</ele>
        <time>2022-03-07T14:19:29.199Z</time>
      </trkpt>
      <trkpt lat="49.47932" lon="3.57921">
        <ele>149.23</ele>
        <time>2022-03-07T14:19:38.999Z</time>
      </trkpt>
      <trkpt lat="49.4793" lon="3.57907">
        <ele>148.16</ele>
        <time>2022-03-07T14:19:48.417Z</time>
      </trkpt>
      <trkpt lat="49.47928" lon="3.57893">
        <ele>147.22</ele>
        <time>2022-03-07T14:19:57.867Z</time>
      </trkpt>
      <trkpt lat="49.47926" lon="3.57874">
        <ele>146.49</ele>
        <time>2022-03-07T14:20:07.999Z</time>
      </trkpt>
      <trkpt lat="49.47923" lon="3.57858">
        <ele>144.92</ele>
        <time>2022-03-07T14:20:17.999Z</time>
      </trkpt>
      <trkpt lat="49.47919" lon="3.57845">
        <ele>142.67</ele>
        <time>2022-03-07T14:20:27.242Z</time>
      </trkpt>
      <trkpt lat="49.47916" lon="3.5783">
        <ele>140.73</ele>
        <time>2022-03-07T14:20:36.824Z</time>
      </trkpt>
      <trkpt lat="49.47915" lon="3.57815">
        <ele>140.36</ele>
        <time>2022-03-07T14:20:46.407Z</time>
      </trkpt>
      <trkpt lat="49.47914" lon="3.57802">
        <ele>140.22</ele>
        <time>2022-03-07T14:20:55.922Z</time>
      </trkpt>
      <trkpt lat="49.47911" lon="3.57789">
        <ele>140.64</ele>
        <time>2022-03-07T14:21:05.164Z</time>
      </trkpt>
      <trkpt lat="49.47909" lon="3.57776">
        <ele>140.72</ele>
        <time>2022-03-07T14:21:15.322Z</time>
      </trkpt>
      <trkpt lat="49.47905" lon="3.57764">
        <ele>141.03</ele>
        <time>2022-03-07T14:21:24.724Z</time>
      </trkpt>
      <trkpt lat="49.47898" lon="3.57752">
        <ele>141.6</ele>
        <time>2022-03-07T14:21:33.961Z</time>
      </trkpt>
      <trkpt lat="49.47893" lon="3.57743">
        <ele>141.6</ele>
        <time>2022-03-07T14:21:42.999Z</time>
      </trkpt>
      <trkpt lat="49.47883" lon="3.57734">
        <ele>141.75</ele>
        <time>2022-03-07T14:21:52.366Z</time>
      </trkpt>
      <trkpt lat="49.47874" lon="3.57721">
        <ele>141.45</ele>
        <time>2022-03-07T14:22:01.540Z</time>
      </trkpt>
      <trkpt lat="49.47865" lon="3.57709">
        <ele>141.18</ele>
        <time>2022-03-07T14:22:10.999Z</time>
      </trkpt>
      <trkpt lat="49.47858" lon="3.57696">
        <ele>140.53</ele>
        <time>2022-03-07T14:22:20.596Z</time>
      </trkpt>
      <trkpt lat="49.4785" lon="3.57686">
        <ele>140.42</ele>
        <time>2022-03-07T14:22:29.739Z</time>
      </trkpt>
      <trkpt lat="49.47841" lon="3.5768">
        <ele>140.54</ele>
        <time>2022-03-07T14:22:38.906Z</time>
      </trkpt>
      <trkpt lat="49.47833" lon="3.57673">
        <ele>140.34</ele>
        <time>2022-03-07T14:22:47.999Z</time>
      </trkpt>
      <trkpt lat="49.47823" lon="3.57659">
        <ele>140.47</ele>
        <time>2022-03-07T14:22:57.999Z</time>
      </trkpt>
      <trkpt lat="49.47812" lon="3.57646">
        <ele>140.83</ele>
        <time>2022-03-07T14:23:08.224Z</time>
      </trkpt>
      <trkpt lat="49.47802" lon="3.57637">
        <ele>141</ele>
        <time>2022-03-07T14:23:17.319Z</time>
      </trkpt>
      <trkpt lat="49.47793" lon="3.57624">
        <ele>141.28</ele>
        <time>2022-03-07T14:23:27.323Z</time>
      </trkpt>
      <trkpt lat="49.47791" lon="3.57615">
        <ele>141.43</ele>
        <time>2022-03-07T14:23:36.999Z</time>
      </trkpt>
      <trkpt lat="49.47787" lon="3.57599">
        <ele>142.25</ele>
        <time>2022-03-07T14:23:46.127Z</time>
      </trkpt>
      <trkpt lat="49.47781" lon="3.57587">
        <ele>142.54</ele>
        <time>2022-03-07T14:23:55.182Z</time>
      </trkpt>
      <trkpt lat="49.47773" lon="3.57578">
        <ele>142.43</ele>
        <time>2022-03-07T14:24:04.299Z</time>
      </trkpt>
      <trkpt lat="49.47766" lon="3.57565">
        <ele>141.92</ele>
        <time>2022-03-07T14:24:13.325Z</time>
      </trkpt>
      <trkpt lat="49.47759" lon="3.5755">
        <ele>141.71</ele>
        <time>2022-03-07T14:24:22.999Z</time>
      </trkpt>
      <trkpt lat="49.47753" lon="3.57535">
        <ele>141.69</ele>
        <time>2022-03-07T14:24:32.285Z</time>
      </trkpt>
      <trkpt lat="49.47748" lon="3.57519">
        <ele>141.51</ele>
        <time>2022-03-07T14:24:41.790Z</time>
      </trkpt>
      <trkpt lat="49.47749" lon="3.57506">
        <ele>140.66</ele>
        <time>2022-03-07T14:24:51.407Z</time>
      </trkpt>
      <trkpt lat="49.47746" lon="3.57493">
        <ele>140.39</ele>
        <time>2022-03-07T14:25:00.999Z</time>
      </trkpt>
      <trkpt lat="49.47745" lon="3.57479">
        <ele>140.26</ele>
        <time>2022-03-07T14:25:10.242Z</time>
      </trkpt>
      <trkpt lat="49.47743" lon="3.57465">
        <ele>140.41</ele>
        <time>2022-03-07T14:25:19.764Z</time>
      </trkpt>
      <trkpt lat="49.47742" lon="3.57452">
        <ele>140.85</ele>
        <time>2022-03-07T14:25:28.940Z</time>
      </trkpt>
      <trkpt lat="49.47739" lon="3.5744">
        <ele>140.21</ele>
        <time>2022-03-07T14:25:38.460Z</time>
      </trkpt>
      <trkpt lat="49.47736" lon="3.57432">
        <ele>138.97</ele>
        <time>2022-03-07T14:25:48.039Z</time>
      </trkpt>
      <trkpt lat="49.4773" lon="3.57426">
        <ele>138.74</ele>
        <time>2022-03-07T14:25:58.260Z</time>
      </trkpt>
      <trkpt lat="49.47724" lon="3.57407">
        <ele>139.9</ele>
        <time>2022-03-07T14:26:07.999Z</time>
      </trkpt>
      <trkpt lat="49.47718" lon="3.57392">
        <ele>159.7</ele>
        <time>2022-03-07T14:26:17.718Z</time>
      </trkpt>
      <trkpt lat="49.47715" lon="3.57389">
        <ele>159.99</ele>
        <time>2022-03-07T14:26:26.999Z</time>
      </trkpt>
      <trkpt lat="49.47716" lon="3.57394">
        <ele>159.99</ele>
        <time>2022-03-07T14:26:36.999Z</time>
      </trkpt>
      <trkpt lat="49.47713" lon="3.57395">
        <ele>159.99</ele>
        <time>2022-03-07T14:26:46.999Z</time>
      </trkpt>
      <trkpt lat="49.47712" lon="3.57393">
        <ele>159.99</ele>
        <time>2022-03-07T14:26:56.999Z</time>
      </trkpt>
      <trkpt lat="49.47715" lon="3.57394">
        <ele>159.99</ele>
        <time>2022-03-07T14:27:15.999Z</time>
      </trkpt>
      <trkpt lat="49.47714" lon="3.57382">
        <ele>159.99</ele>
        <time>2022-03-07T14:27:26.158Z</time>
      </trkpt>
      <trkpt lat="49.47705" lon="3.57366">
        <ele>159.99</ele>
        <time>2022-03-07T14:27:35.303Z</time>
      </trkpt>
      <trkpt lat="49.4769" lon="3.57356">
        <ele>159.99</ele>
        <time>2022-03-07T14:27:44.958Z</time>
      </trkpt>
      <trkpt lat="49.4768" lon="3.5735">
        <ele>159.99</ele>
        <time>2022-03-07T14:27:54.363Z</time>
      </trkpt>
      <trkpt lat="49.47667" lon="3.57352">
        <ele>159.99</ele>
        <time>2022-03-07T14:28:03.965Z</time>
      </trkpt>
      <trkpt lat="49.47657" lon="3.57349">
        <ele>159.3</ele>
        <time>2022-03-07T14:28:13.362Z</time>
      </trkpt>
      <trkpt lat="49.47644" lon="3.5735">
        <ele>159.29</ele>
        <time>2022-03-07T14:28:22.942Z</time>
      </trkpt>
      <trkpt lat="49.4763" lon="3.57353">
        <ele>159.19</ele>
        <time>2022-03-07T14:28:32.399Z</time>
      </trkpt>
      <trkpt lat="49.47621" lon="3.57355">
        <ele>159.29</ele>
        <time>2022-03-07T14:28:42.184Z</time>
      </trkpt>
      <trkpt lat="49.47613" lon="3.57348">
        <ele>159.29</ele>
        <time>2022-03-07T14:28:51.186Z</time>
      </trkpt>
      <trkpt lat="49.47605" lon="3.57338">
        <ele>159.19</ele>
        <time>2022-03-07T14:29:00.378Z</time>
      </trkpt>
      <trkpt lat="49.47596" lon="3.57327">
        <ele>159.19</ele>
        <time>2022-03-07T14:29:09.450Z</time>
      </trkpt>
      <trkpt lat="49.47584" lon="3.57317">
        <ele>159.19</ele>
        <time>2022-03-07T14:29:19.160Z</time>
      </trkpt>
      <trkpt lat="49.47576" lon="3.57305">
        <ele>144.76</ele>
        <time>2022-03-07T14:29:28.865Z</time>
      </trkpt>
      <trkpt lat="49.47565" lon="3.573">
        <ele>154.59</ele>
        <time>2022-03-07T14:29:37.999Z</time>
      </trkpt>
      <trkpt lat="49.47551" lon="3.573">
        <ele>157.35</ele>
        <time>2022-03-07T14:29:47.226Z</time>
      </trkpt>
      <trkpt lat="49.4754" lon="3.57299">
        <ele>157.19</ele>
        <time>2022-03-07T14:29:56.999Z</time>
      </trkpt>
      <trkpt lat="49.47528" lon="3.57294">
        <ele>157.19</ele>
        <time>2022-03-07T14:30:06.783Z</time>
      </trkpt>
      <trkpt lat="49.47518" lon="3.5729">
        <ele>158.19</ele>
        <time>2022-03-07T14:30:15.958Z</time>
      </trkpt>
      <trkpt lat="49.47508" lon="3.57279">
        <ele>157.19</ele>
        <time>2022-03-07T14:30:25.057Z</time>
      </trkpt>
      <trkpt lat="49.47504" lon="3.57267">
        <ele>157.09</ele>
        <time>2022-03-07T14:30:34.120Z</time>
      </trkpt>
      <trkpt lat="49.47496" lon="3.57257">
        <ele>157.09</ele>
        <time>2022-03-07T14:30:43.298Z</time>
      </trkpt>
      <trkpt lat="49.47488" lon="3.5725">
        <ele>157.09</ele>
        <time>2022-03-07T14:30:53.162Z</time>
      </trkpt>
      <trkpt lat="49.47478" lon="3.57244">
        <ele>157.09</ele>
        <time>2022-03-07T14:31:02.363Z</time>
      </trkpt>
      <trkpt lat="49.47468" lon="3.57233">
        <ele>149.47</ele>
        <time>2022-03-07T14:31:11.799Z</time>
      </trkpt>
      <trkpt lat="49.47457" lon="3.57225">
        <ele>156.4</ele>
        <time>2022-03-07T14:31:21.261Z</time>
      </trkpt>
      <trkpt lat="49.47447" lon="3.57219">
        <ele>128.8</ele>
        <time>2022-03-07T14:31:30.563Z</time>
      </trkpt>
      <trkpt lat="49.47441" lon="3.57207">
        <ele>156.37</ele>
        <time>2022-03-07T14:31:39.900Z</time>
      </trkpt>
      <trkpt lat="49.4744" lon="3.57192">
        <ele>156.4</ele>
        <time>2022-03-07T14:31:48.999Z</time>
      </trkpt>
      <trkpt lat="49.47436" lon="3.57173">
        <ele>156.4</ele>
        <time>2022-03-07T14:31:58.999Z</time>
      </trkpt>
      <trkpt lat="49.47438" lon="3.57152">
        <ele>155.31</ele>
        <time>2022-03-07T14:32:08.287Z</time>
      </trkpt>
      <trkpt lat="49.47439" lon="3.57136">
        <ele>155.3</ele>
        <time>2022-03-07T14:32:18.119Z</time>
      </trkpt>
      <trkpt lat="49.47438" lon="3.57119">
        <ele>157.1</ele>
        <time>2022-03-07T14:32:27.722Z</time>
      </trkpt>
      <trkpt lat="49.47441" lon="3.57105">
        <ele>157.1</ele>
        <time>2022-03-07T14:32:36.759Z</time>
      </trkpt>
      <trkpt lat="49.47448" lon="3.57093">
        <ele>71.1</ele>
        <time>2022-03-07T14:32:45.905Z</time>
      </trkpt>
      <trkpt lat="49.47453" lon="3.5708">
        <ele>73.8</ele>
        <time>2022-03-07T14:32:55.281Z</time>
      </trkpt>
      <trkpt lat="49.47455" lon="3.57064">
        <ele>152.7</ele>
        <time>2022-03-07T14:33:04.625Z</time>
      </trkpt>
      <trkpt lat="49.47452" lon="3.57052">
        <ele>152.7</ele>
        <time>2022-03-07T14:33:13.999Z</time>
      </trkpt>
      <trkpt lat="49.47459" lon="3.57051">
        <ele>152.7</ele>
        <time>2022-03-07T14:33:23.099Z</time>
      </trkpt>
      <trkpt lat="49.4746" lon="3.57046">
        <ele>152.7</ele>
        <time>2022-03-07T14:33:32.999Z</time>
      </trkpt>
      <trkpt lat="49.47457" lon="3.57043">
        <ele>91.7</ele>
        <time>2022-03-07T14:33:42.125Z</time>
      </trkpt>
      <trkpt lat="49.47456" lon="3.57047">
        <ele>152.69</ele>
        <time>2022-03-07T14:33:51.999Z</time>
      </trkpt>
      <trkpt lat="49.47457" lon="3.57049">
        <ele>152.7</ele>
        <time>2022-03-07T14:34:01.999Z</time>
      </trkpt>
      <trkpt lat="49.47455" lon="3.57056">
        <ele>156.82</ele>
        <time>2022-03-07T14:34:11.999Z</time>
      </trkpt>
      <trkpt lat="49.47454" lon="3.5706">
        <ele>135.91</ele>
        <time>2022-03-07T14:34:21.999Z</time>
      </trkpt>
      <trkpt lat="49.47452" lon="3.57059">
        <ele>134.5</ele>
        <time>2022-03-07T14:34:33.999Z</time>
      </trkpt>
      <trkpt lat="49.47449" lon="3.5706">
        <ele>152.7</ele>
        <time>2022-03-07T14:34:43.999Z</time>
      </trkpt>
      <trkpt lat="49.47448" lon="3.5706">
        <ele>139.05</ele>
        <time>2022-03-07T14:35:02.875Z</time>
      </trkpt>
      <trkpt lat="49.47449" lon="3.57053">
        <ele>102.4</ele>
        <time>2022-03-07T14:35:12.999Z</time>
      </trkpt>
      <trkpt lat="49.47453" lon="3.57051">
        <ele>155.03</ele>
        <time>2022-03-07T14:35:22.999Z</time>
      </trkpt>
      <trkpt lat="49.47454" lon="3.5705">
        <ele>155.1</ele>
        <time>2022-03-07T14:35:32.999Z</time>
      </trkpt>
      <trkpt lat="49.47455" lon="3.57051">
        <ele>134.5</ele>
        <time>2022-03-07T14:35:56.999Z</time>
      </trkpt>
      <trkpt lat="49.47456" lon="3.57051">
        <ele>134.5</ele>
        <time>2022-03-07T14:36:07.999Z</time>
      </trkpt>
      <trkpt lat="49.47452" lon="3.57055">
        <ele>152.63</ele>
        <time>2022-03-07T14:36:17.999Z</time>
      </trkpt>
      <trkpt lat="49.47451" lon="3.57057">
        <ele>152.7</ele>
        <time>2022-03-07T14:36:27.999Z</time>
      </trkpt>
      <trkpt lat="49.4745" lon="3.57056">
        <ele>152.7</ele>
        <time>2022-03-07T14:36:37.405Z</time>
      </trkpt>
      <trkpt lat="49.47449" lon="3.57058">
        <ele>152.41</ele>
        <time>2022-03-07T14:36:47.384Z</time>
      </trkpt>
      <trkpt lat="49.47449" lon="3.57054">
        <ele>152.7</ele>
        <time>2022-03-07T14:36:56.999Z</time>
      </trkpt>
      <trkpt lat="49.47449" lon="3.57053">
        <ele>152.7</ele>
        <time>2022-03-07T14:37:07.999Z</time>
      </trkpt>
      <trkpt lat="49.47449" lon="3.57056">
        <ele>152.7</ele>
        <time>2022-03-07T14:37:17.999Z</time>
      </trkpt>
      <trkpt lat="49.47448" lon="3.57055">
        <ele>152.7</ele>
        <time>2022-03-07T14:37:42.284Z</time>
      </trkpt>
      <trkpt lat="49.47448" lon="3.57056">
        <ele>135.63</ele>
        <time>2022-03-07T14:37:54.999Z</time>
      </trkpt>
      <trkpt lat="49.47449" lon="3.57062">
        <ele>152.63</ele>
        <time>2022-03-07T14:38:04.999Z</time>
      </trkpt>
      <trkpt lat="49.47451" lon="3.57078">
        <ele>152.7</ele>
        <time>2022-03-07T14:38:14.999Z</time>
      </trkpt>
      <trkpt lat="49.47451" lon="3.57091">
        <ele>152.7</ele>
        <time>2022-03-07T14:38:24.999Z</time>
      </trkpt>
      <trkpt lat="49.4745" lon="3.57107">
        <ele>157.1</ele>
        <time>2022-03-07T14:38:34.624Z</time>
      </trkpt>
      <trkpt lat="49.47444" lon="3.57122">
        <ele>157.1</ele>
        <time>2022-03-07T14:38:43.999Z</time>
      </trkpt>
      <trkpt lat="49.47443" lon="3.57139">
        <ele>157.1</ele>
        <time>2022-03-07T14:38:53.999Z</time>
      </trkpt>
      <trkpt lat="49.47441" lon="3.57155">
        <ele>155.1</ele>
        <time>2022-03-07T14:39:03.999Z</time>
      </trkpt>
      <trkpt lat="49.47436" lon="3.57164">
        <ele>155.1</ele>
        <time>2022-03-07T14:39:13.781Z</time>
      </trkpt>
      <trkpt lat="49.47433" lon="3.57177">
        <ele>155.1</ele>
        <time>2022-03-07T14:39:22.999Z</time>
      </trkpt>
      <trkpt lat="49.47432" lon="3.57196">
        <ele>155.5</ele>
        <time>2022-03-07T14:39:32.999Z</time>
      </trkpt>
      <trkpt lat="49.47434" lon="3.5721">
        <ele>156.38</ele>
        <time>2022-03-07T14:39:42.095Z</time>
      </trkpt>
      <trkpt lat="49.47434" lon="3.57219">
        <ele>157.18</ele>
        <time>2022-03-07T14:39:51.999Z</time>
      </trkpt>
      <trkpt lat="49.47425" lon="3.57223">
        <ele>156.4</ele>
        <time>2022-03-07T14:40:01.999Z</time>
      </trkpt>
      <trkpt lat="49.47414" lon="3.57214">
        <ele>155.1</ele>
        <time>2022-03-07T14:40:11.705Z</time>
      </trkpt>
      <trkpt lat="49.47409" lon="3.572">
        <ele>155.1</ele>
        <time>2022-03-07T14:40:21.223Z</time>
      </trkpt>
      <trkpt lat="49.47403" lon="3.57191">
        <ele>155.1</ele>
        <time>2022-03-07T14:40:31.178Z</time>
      </trkpt>
      <trkpt lat="49.47396" lon="3.57188">
        <ele>155.1</ele>
        <time>2022-03-07T14:40:40.999Z</time>
      </trkpt>
      <trkpt lat="49.47389" lon="3.57184">
        <ele>155.1</ele>
        <time>2022-03-07T14:40:50.999Z</time>
      </trkpt>
      <trkpt lat="49.47382" lon="3.57182">
        <ele>155.1</ele>
        <time>2022-03-07T14:41:00.999Z</time>
      </trkpt>
      <trkpt lat="49.47379" lon="3.57176">
        <ele>155.1</ele>
        <time>2022-03-07T14:41:10.366Z</time>
      </trkpt>
      <trkpt lat="49.47369" lon="3.57174">
        <ele>155.1</ele>
        <time>2022-03-07T14:41:19.625Z</time>
      </trkpt>
      <trkpt lat="49.4736" lon="3.5717">
        <ele>155.1</ele>
        <time>2022-03-07T14:41:29.200Z</time>
      </trkpt>
      <trkpt lat="49.47353" lon="3.57162">
        <ele>155.1</ele>
        <time>2022-03-07T14:41:38.598Z</time>
      </trkpt>
      <trkpt lat="49.47347" lon="3.57153">
        <ele>154.12</ele>
        <time>2022-03-07T14:41:47.999Z</time>
      </trkpt>
      <trkpt lat="49.47338" lon="3.57142">
        <ele>153.92</ele>
        <time>2022-03-07T14:41:57.502Z</time>
      </trkpt>
      <trkpt lat="49.47331" lon="3.57131">
        <ele>153.7</ele>
        <time>2022-03-07T14:42:07.108Z</time>
      </trkpt>
      <trkpt lat="49.47324" lon="3.57123">
        <ele>91.71</ele>
        <time>2022-03-07T14:42:16.397Z</time>
      </trkpt>
      <trkpt lat="49.47316" lon="3.57118">
        <ele>91.7</ele>
        <time>2022-03-07T14:42:25.405Z</time>
      </trkpt>
      <trkpt lat="49.47308" lon="3.57119">
        <ele>91.7</ele>
        <time>2022-03-07T14:42:34.805Z</time>
      </trkpt>
      <trkpt lat="49.47304" lon="3.57113">
        <ele>91.7</ele>
        <time>2022-03-07T14:42:43.999Z</time>
      </trkpt>
      <trkpt lat="49.47295" lon="3.57105">
        <ele>91.7</ele>
        <time>2022-03-07T14:42:53.999Z</time>
      </trkpt>
      <trkpt lat="49.47291" lon="3.571">
        <ele>91.7</ele>
        <time>2022-03-07T14:43:03.278Z</time>
      </trkpt>
      <trkpt lat="49.47286" lon="3.57096">
        <ele>91.7</ele>
        <time>2022-03-07T14:43:12.999Z</time>
      </trkpt>
      <trkpt lat="49.47278" lon="3.57094">
        <ele>91.7</ele>
        <time>2022-03-07T14:43:22.999Z</time>
      </trkpt>
      <trkpt lat="49.47271" lon="3.5711">
        <ele>91.7</ele>
        <time>2022-03-07T14:43:33.404Z</time>
      </trkpt>
      <trkpt lat="49.47268" lon="3.57124">
        <ele>91.7</ele>
        <time>2022-03-07T14:43:43.999Z</time>
      </trkpt>
      <trkpt lat="49.47266" lon="3.57137">
        <ele>131.24</ele>
        <time>2022-03-07T14:43:53.403Z</time>
      </trkpt>
      <trkpt lat="49.47262" lon="3.5715">
        <ele>127.63</ele>
        <time>2022-03-07T14:44:02.999Z</time>
      </trkpt>
      <trkpt lat="49.47258" lon="3.57163">
        <ele>124.64</ele>
        <time>2022-03-07T14:44:12.438Z</time>
      </trkpt>
      <trkpt lat="49.47251" lon="3.57174">
        <ele>122.08</ele>
        <time>2022-03-07T14:44:21.710Z</time>
      </trkpt>
      <trkpt lat="49.47247" lon="3.57187">
        <ele>119.91</ele>
        <time>2022-03-07T14:44:30.999Z</time>
      </trkpt>
      <trkpt lat="49.47244" lon="3.572">
        <ele>118.36</ele>
        <time>2022-03-07T14:44:40.081Z</time>
      </trkpt>
      <trkpt lat="49.47242" lon="3.57215">
        <ele>117.26</ele>
        <time>2022-03-07T14:44:50.284Z</time>
      </trkpt>
      <trkpt lat="49.47239" lon="3.57229">
        <ele>116.69</ele>
        <time>2022-03-07T14:44:59.418Z</time>
      </trkpt>
      <trkpt lat="49.4723" lon="3.57236">
        <ele>116.52</ele>
        <time>2022-03-07T14:45:08.603Z</time>
      </trkpt>
      <trkpt lat="49.47221" lon="3.5723">
        <ele>116.73</ele>
        <time>2022-03-07T14:45:17.999Z</time>
      </trkpt>
      <trkpt lat="49.47217" lon="3.57213">
        <ele>117.4</ele>
        <time>2022-03-07T14:45:28.343Z</time>
      </trkpt>
      <trkpt lat="49.47211" lon="3.57198">
        <ele>118.48</ele>
        <time>2022-03-07T14:45:38.065Z</time>
      </trkpt>
      <trkpt lat="49.47202" lon="3.57191">
        <ele>92.3</ele>
        <time>2022-03-07T14:45:47.999Z</time>
      </trkpt>
      <trkpt lat="49.47193" lon="3.57188">
        <ele>92.3</ele>
        <time>2022-03-07T14:45:58.106Z</time>
      </trkpt>
      <trkpt lat="49.47187" lon="3.57185">
        <ele>92.3</ele>
        <time>2022-03-07T14:46:07.443Z</time>
      </trkpt>
      <trkpt lat="49.47178" lon="3.57186">
        <ele>92.3</ele>
        <time>2022-03-07T14:46:16.999Z</time>
      </trkpt>
      <trkpt lat="49.47169" lon="3.57187">
        <ele>92.3</ele>
        <time>2022-03-07T14:46:26.321Z</time>
      </trkpt>
      <trkpt lat="49.47161" lon="3.57188">
        <ele>92.3</ele>
        <time>2022-03-07T14:46:35.999Z</time>
      </trkpt>
      <trkpt lat="49.47152" lon="3.57192">
        <ele>92.3</ele>
        <time>2022-03-07T14:46:45.365Z</time>
      </trkpt>
      <trkpt lat="49.47143" lon="3.57191">
        <ele>92.3</ele>
        <time>2022-03-07T14:46:54.999Z</time>
      </trkpt>
      <trkpt lat="49.47133" lon="3.57188">
        <ele>92.3</ele>
        <time>2022-03-07T14:47:04.444Z</time>
      </trkpt>
      <trkpt lat="49.47124" lon="3.57195">
        <ele>102.4</ele>
        <time>2022-03-07T14:47:13.999Z</time>
      </trkpt>
      <trkpt lat="49.4712" lon="3.5719">
        <ele>101.5</ele>
        <time>2022-03-07T14:47:23.999Z</time>
      </trkpt>
      <trkpt lat="49.47118" lon="3.57192">
        <ele>100.72</ele>
        <time>2022-03-07T14:47:33.111Z</time>
      </trkpt>
      <trkpt lat="49.47112" lon="3.57195">
        <ele>100.51</ele>
        <time>2022-03-07T14:47:42.999Z</time>
      </trkpt>
      <trkpt lat="49.47109" lon="3.57193">
        <ele>100.61</ele>
        <time>2022-03-07T14:47:52.999Z</time>
      </trkpt>
      <trkpt lat="49.4711" lon="3.57196">
        <ele>100.84</ele>
        <time>2022-03-07T14:48:02.999Z</time>
      </trkpt>
      <trkpt lat="49.47104" lon="3.57197">
        <ele>101.33</ele>
        <time>2022-03-07T14:48:12.717Z</time>
      </trkpt>
      <trkpt lat="49.47096" lon="3.57199">
        <ele>101.49</ele>
        <time>2022-03-07T14:48:22.282Z</time>
      </trkpt>
      <trkpt lat="49.4709" lon="3.57195">
        <ele>101.64</ele>
        <time>2022-03-07T14:48:31.284Z</time>
      </trkpt>
      <trkpt lat="49.47083" lon="3.57195">
        <ele>100.98</ele>
        <time>2022-03-07T14:48:40.999Z</time>
      </trkpt>
      <trkpt lat="49.47069" lon="3.57194">
        <ele>100.77</ele>
        <time>2022-03-07T14:48:50.263Z</time>
      </trkpt>
      <trkpt lat="49.47059" lon="3.57191">
        <ele>100.72</ele>
        <time>2022-03-07T14:48:59.999Z</time>
      </trkpt>
      <trkpt lat="49.47049" lon="3.57186">
        <ele>100.39</ele>
        <time>2022-03-07T14:49:09.399Z</time>
      </trkpt>
      <trkpt lat="49.47042" lon="3.57184">
        <ele>99.16</ele>
        <time>2022-03-07T14:49:18.402Z</time>
      </trkpt>
      <trkpt lat="49.47033" lon="3.57182">
        <ele>97.24</ele>
        <time>2022-03-07T14:49:27.979Z</time>
      </trkpt>
      <trkpt lat="49.47025" lon="3.57185">
        <ele>94.78</ele>
        <time>2022-03-07T14:49:36.986Z</time>
      </trkpt>
      <trkpt lat="49.47016" lon="3.57186">
        <ele>91.85</ele>
        <time>2022-03-07T14:49:46.999Z</time>
      </trkpt>
      <trkpt lat="49.47006" lon="3.57191">
        <ele>88.48</ele>
        <time>2022-03-07T14:49:56.999Z</time>
      </trkpt>
      <trkpt lat="49.46997" lon="3.57198">
        <ele>84.1</ele>
        <time>2022-03-07T14:50:06.824Z</time>
      </trkpt>
      <trkpt lat="49.46989" lon="3.57206">
        <ele>79.58</ele>
        <time>2022-03-07T14:50:15.984Z</time>
      </trkpt>
      <trkpt lat="49.46982" lon="3.57216">
        <ele>75.3</ele>
        <time>2022-03-07T14:50:25.220Z</time>
      </trkpt>
      <trkpt lat="49.4698" lon="3.57231">
        <ele>70.67</ele>
        <time>2022-03-07T14:50:34.999Z</time>
      </trkpt>
      <trkpt lat="49.46985" lon="3.57244">
        <ele>66.84</ele>
        <time>2022-03-07T14:50:44.999Z</time>
      </trkpt>
      <trkpt lat="49.46986" lon="3.57264">
        <ele>64.04</ele>
        <time>2022-03-07T14:50:54.999Z</time>
      </trkpt>
      <trkpt lat="49.46987" lon="3.57284">
        <ele>62.55</ele>
        <time>2022-03-07T14:51:04.999Z</time>
      </trkpt>
      <trkpt lat="49.46987" lon="3.57301">
        <ele>61.04</ele>
        <time>2022-03-07T14:51:14.240Z</time>
      </trkpt>
      <trkpt lat="49.46983" lon="3.57315">
        <ele>57.74</ele>
        <time>2022-03-07T14:51:23.260Z</time>
      </trkpt>
      <trkpt lat="49.46973" lon="3.57323">
        <ele>57.99</ele>
        <time>2022-03-07T14:51:32.744Z</time>
      </trkpt>
      <trkpt lat="49.4696" lon="3.57326">
        <ele>60.9</ele>
        <time>2022-03-07T14:51:41.919Z</time>
      </trkpt>
      <trkpt lat="49.46949" lon="3.57328">
        <ele>63.55</ele>
        <time>2022-03-07T14:51:51.123Z</time>
      </trkpt>
      <trkpt lat="49.46939" lon="3.57334">
        <ele>65.77</ele>
        <time>2022-03-07T14:52:00.325Z</time>
      </trkpt>
      <trkpt lat="49.4693" lon="3.57339">
        <ele>67.48</ele>
        <time>2022-03-07T14:52:09.999Z</time>
      </trkpt>
      <trkpt lat="49.4692" lon="3.57339">
        <ele>68.27</ele>
        <time>2022-03-07T14:52:19.999Z</time>
      </trkpt>
      <trkpt lat="49.46911" lon="3.5734">
        <ele>68.58</ele>
        <time>2022-03-07T14:52:29.238Z</time>
      </trkpt>
      <trkpt lat="49.46902" lon="3.57342">
        <ele>68.41</ele>
        <time>2022-03-07T14:52:38.999Z</time>
      </trkpt>
      <trkpt lat="49.46891" lon="3.57341">
        <ele>68.03</ele>
        <time>2022-03-07T14:52:48.999Z</time>
      </trkpt>
      <trkpt lat="49.4688" lon="3.57341">
        <ele>68.03</ele>
        <time>2022-03-07T14:52:58.999Z</time>
      </trkpt>
      <trkpt lat="49.4687" lon="3.57335">
        <ele>67.92</ele>
        <time>2022-03-07T14:53:08.247Z</time>
      </trkpt>
      <trkpt lat="49.46862" lon="3.5733">
        <ele>67.67</ele>
        <time>2022-03-07T14:53:17.280Z</time>
      </trkpt>
      <trkpt lat="49.46854" lon="3.57327">
        <ele>67.79</ele>
        <time>2022-03-07T14:53:26.919Z</time>
      </trkpt>
      <trkpt lat="49.46845" lon="3.57329">
        <ele>68.1</ele>
        <time>2022-03-07T14:53:36.999Z</time>
      </trkpt>
      <trkpt lat="49.46834" lon="3.57329">
        <ele>67.57</ele>
        <time>2022-03-07T14:53:46.043Z</time>
      </trkpt>
      <trkpt lat="49.46823" lon="3.57329">
        <ele>66.56</ele>
        <time>2022-03-07T14:53:55.125Z</time>
      </trkpt>
      <trkpt lat="49.46814" lon="3.57328">
        <ele>64.86</ele>
        <time>2022-03-07T14:54:04.363Z</time>
      </trkpt>
      <trkpt lat="49.46804" lon="3.57327">
        <ele>62.35</ele>
        <time>2022-03-07T14:54:13.425Z</time>
      </trkpt>
      <trkpt lat="49.46793" lon="3.57328">
        <ele>59.63</ele>
        <time>2022-03-07T14:54:22.619Z</time>
      </trkpt>
      <trkpt lat="49.46783" lon="3.57327">
        <ele>57.59</ele>
        <time>2022-03-07T14:54:31.662Z</time>
      </trkpt>
      <trkpt lat="49.46773" lon="3.57327">
        <ele>56.37</ele>
        <time>2022-03-07T14:54:41.999Z</time>
      </trkpt>
      <trkpt lat="49.46763" lon="3.57327">
        <ele>56.31</ele>
        <time>2022-03-07T14:54:51.301Z</time>
      </trkpt>
      <trkpt lat="49.4675" lon="3.5733">
        <ele>57.41</ele>
        <time>2022-03-07T14:55:01.156Z</time>
      </trkpt>
      <trkpt lat="49.46738" lon="3.57332">
        <ele>58.51</ele>
        <time>2022-03-07T14:55:10.999Z</time>
      </trkpt>
      <trkpt lat="49.46725" lon="3.57337">
        <ele>60.31</ele>
        <time>2022-03-07T14:55:20.999Z</time>
      </trkpt>
      <trkpt lat="49.46713" lon="3.57339">
        <ele>61.89</ele>
        <time>2022-03-07T14:55:30.999Z</time>
      </trkpt>
      <trkpt lat="49.46701" lon="3.5734">
        <ele>63.54</ele>
        <time>2022-03-07T14:55:40.999Z</time>
      </trkpt>
      <trkpt lat="49.46689" lon="3.57339">
        <ele>65.15</ele>
        <time>2022-03-07T14:55:50.999Z</time>
      </trkpt>
      <trkpt lat="49.46678" lon="3.57341">
        <ele>66.18</ele>
        <time>2022-03-07T14:56:01.264Z</time>
      </trkpt>
      <trkpt lat="49.46668" lon="3.57343">
        <ele>67.01</ele>
        <time>2022-03-07T14:56:11.344Z</time>
      </trkpt>
      <trkpt lat="49.46661" lon="3.57338">
        <ele>66.94</ele>
        <time>2022-03-07T14:56:20.358Z</time>
      </trkpt>
      <trkpt lat="49.46654" lon="3.5734">
        <ele>66.42</ele>
        <time>2022-03-07T14:56:29.564Z</time>
      </trkpt>
      <trkpt lat="49.46645" lon="3.57344">
        <ele>68.53</ele>
        <time>2022-03-07T14:56:38.999Z</time>
      </trkpt>
      <trkpt lat="49.46636" lon="3.57352">
        <ele>70.06</ele>
        <time>2022-03-07T14:56:48.362Z</time>
      </trkpt>
      <trkpt lat="49.46626" lon="3.5736">
        <ele>71.59</ele>
        <time>2022-03-07T14:56:57.859Z</time>
      </trkpt>
      <trkpt lat="49.46615" lon="3.57368">
        <ele>72.93</ele>
        <time>2022-03-07T14:57:07.433Z</time>
      </trkpt>
      <trkpt lat="49.46605" lon="3.57376">
        <ele>73.64</ele>
        <time>2022-03-07T14:57:16.845Z</time>
      </trkpt>
      <trkpt lat="49.46596" lon="3.57383">
        <ele>73.62</ele>
        <time>2022-03-07T14:57:26.365Z</time>
      </trkpt>
      <trkpt lat="49.46586" lon="3.57385">
        <ele>72.95</ele>
        <time>2022-03-07T14:57:36.382Z</time>
      </trkpt>
      <trkpt lat="49.46575" lon="3.57386">
        <ele>73.04</ele>
        <time>2022-03-07T14:57:45.388Z</time>
      </trkpt>
      <trkpt lat="49.46564" lon="3.57388">
        <ele>73.39</ele>
        <time>2022-03-07T14:57:55.523Z</time>
      </trkpt>
      <trkpt lat="49.46555" lon="3.5739">
        <ele>74.01</ele>
        <time>2022-03-07T14:58:04.999Z</time>
      </trkpt>
      <trkpt lat="49.46545" lon="3.57393">
        <ele>73.86</ele>
        <time>2022-03-07T14:58:14.999Z</time>
      </trkpt>
      <trkpt lat="49.46533" lon="3.57395">
        <ele>73.84</ele>
        <time>2022-03-07T14:58:24.999Z</time>
      </trkpt>
      <trkpt lat="49.46522" lon="3.57392">
        <ele>73.56</ele>
        <time>2022-03-07T14:58:34.999Z</time>
      </trkpt>
      <trkpt lat="49.4651" lon="3.57391">
        <ele>73.82</ele>
        <time>2022-03-07T14:58:44.267Z</time>
      </trkpt>
      <trkpt lat="49.46501" lon="3.57399">
        <ele>75.5</ele>
        <time>2022-03-07T14:58:53.279Z</time>
      </trkpt>
      <trkpt lat="49.46491" lon="3.57405">
        <ele>78.05</ele>
        <time>2022-03-07T14:59:02.786Z</time>
      </trkpt>
      <trkpt lat="49.46482" lon="3.57408">
        <ele>80.19</ele>
        <time>2022-03-07T14:59:11.999Z</time>
      </trkpt>
      <trkpt lat="49.46471" lon="3.57412">
        <ele>82.62</ele>
        <time>2022-03-07T14:59:21.420Z</time>
      </trkpt>
      <trkpt lat="49.4646" lon="3.57415">
        <ele>84.36</ele>
        <time>2022-03-07T14:59:30.999Z</time>
      </trkpt>
      <trkpt lat="49.4645" lon="3.57413">
        <ele>84.95</ele>
        <time>2022-03-07T14:59:40.244Z</time>
      </trkpt>
      <trkpt lat="49.46442" lon="3.57413">
        <ele>84.53</ele>
        <time>2022-03-07T14:59:49.389Z</time>
      </trkpt>
      <trkpt lat="49.46434" lon="3.57418">
        <ele>83.91</ele>
        <time>2022-03-07T14:59:58.401Z</time>
      </trkpt>
      <trkpt lat="49.46425" lon="3.57423">
        <ele>83.72</ele>
        <time>2022-03-07T15:00:07.723Z</time>
      </trkpt>
      <trkpt lat="49.46416" lon="3.57421">
        <ele>83.47</ele>
        <time>2022-03-07T15:00:16.999Z</time>
      </trkpt>
      <trkpt lat="49.4641" lon="3.57411">
        <ele>82.86</ele>
        <time>2022-03-07T15:00:26.102Z</time>
      </trkpt>
      <trkpt lat="49.46407" lon="3.57398">
        <ele>81.86</ele>
        <time>2022-03-07T15:00:35.218Z</time>
      </trkpt>
      <trkpt lat="49.46406" lon="3.57383">
        <ele>80.8</ele>
        <time>2022-03-07T15:00:44.999Z</time>
      </trkpt>
      <trkpt lat="49.46409" lon="3.57369">
        <ele>80.33</ele>
        <time>2022-03-07T15:00:54.176Z</time>
      </trkpt>
      <trkpt lat="49.46411" lon="3.57355">
        <ele>79.88</ele>
        <time>2022-03-07T15:01:03.319Z</time>
      </trkpt>
      <trkpt lat="49.46411" lon="3.5734">
        <ele>79.25</ele>
        <time>2022-03-07T15:01:13.343Z</time>
      </trkpt>
      <trkpt lat="49.46411" lon="3.57328">
        <ele>78.17</ele>
        <time>2022-03-07T15:01:22.999Z</time>
      </trkpt>
      <trkpt lat="49.46412" lon="3.57312">
        <ele>77.15</ele>
        <time>2022-03-07T15:01:32.999Z</time>
      </trkpt>
      <trkpt lat="49.46417" lon="3.57297">
        <ele>76.65</ele>
        <time>2022-03-07T15:01:42.283Z</time>
      </trkpt>
      <trkpt lat="49.46419" lon="3.57281">
        <ele>76.45</ele>
        <time>2022-03-07T15:01:51.338Z</time>
      </trkpt>
      <trkpt lat="49.46423" lon="3.57266">
        <ele>76.66</ele>
        <time>2022-03-07T15:02:00.964Z</time>
      </trkpt>
      <trkpt lat="49.46426" lon="3.57255">
        <ele>77.02</ele>
        <time>2022-03-07T15:02:09.999Z</time>
      </trkpt>
      <trkpt lat="49.46429" lon="3.57243">
        <ele>77.82</ele>
        <time>2022-03-07T15:02:19.999Z</time>
      </trkpt>
      <trkpt lat="49.46434" lon="3.57232">
        <ele>77.94</ele>
        <time>2022-03-07T15:02:29.257Z</time>
      </trkpt>
      <trkpt lat="49.46438" lon="3.57222">
        <ele>77.62</ele>
        <time>2022-03-07T15:02:38.999Z</time>
      </trkpt>
      <trkpt lat="49.46438" lon="3.57213">
        <ele>77.21</ele>
        <time>2022-03-07T15:02:48.999Z</time>
      </trkpt>
      <trkpt lat="49.46433" lon="3.57213">
        <ele>77.13</ele>
        <time>2022-03-07T15:02:58.999Z</time>
      </trkpt>
      <trkpt lat="49.46429" lon="3.57219">
        <ele>77.41</ele>
        <time>2022-03-07T15:03:08.999Z</time>
      </trkpt>
      <trkpt lat="49.46424" lon="3.57216">
        <ele>78.18</ele>
        <time>2022-03-07T15:03:18.477Z</time>
      </trkpt>
      <trkpt lat="49.46424" lon="3.57215">
        <ele>78.66</ele>
        <time>2022-03-07T15:03:30.999Z</time>
      </trkpt>
      <trkpt lat="49.46424" lon="3.57214">
        <ele>78.3</ele>
        <time>2022-03-07T15:03:43.119Z</time>
      </trkpt>
      <trkpt lat="49.46421" lon="3.57212">
        <ele>78.37</ele>
        <time>2022-03-07T15:03:52.999Z</time>
      </trkpt>
      <trkpt lat="49.4642" lon="3.57212">
        <ele>78.94</ele>
        <time>2022-03-07T15:04:03.263Z</time>
      </trkpt>
      <trkpt lat="49.46411" lon="3.57206">
        <ele>80.49</ele>
        <time>2022-03-07T15:04:13.999Z</time>
      </trkpt>
      <trkpt lat="49.4641" lon="3.57204">
        <ele>80.88</ele>
        <time>2022-03-07T15:04:23.999Z</time>
      </trkpt>
      <trkpt lat="49.46409" lon="3.57202">
        <ele>82.24</ele>
        <time>2022-03-07T15:04:34.999Z</time>
      </trkpt>
      <trkpt lat="49.46411" lon="3.57203">
        <ele>83.08</ele>
        <time>2022-03-07T15:04:44.999Z</time>
      </trkpt>
      <trkpt lat="49.4641" lon="3.57202">
        <ele>83.83</ele>
        <time>2022-03-07T15:04:57.999Z</time>
      </trkpt>
      <trkpt lat="49.46408" lon="3.57203">
        <ele>83.91</ele>
        <time>2022-03-07T15:05:07.641Z</time>
      </trkpt>
      <trkpt lat="49.46408" lon="3.57202">
        <ele>84.9</ele>
        <time>2022-03-07T15:05:28.999Z</time>
      </trkpt>
      <trkpt lat="49.46403" lon="3.57199">
        <ele>86.12</ele>
        <time>2022-03-07T15:05:38.999Z</time>
      </trkpt>
      <trkpt lat="49.46395" lon="3.57189">
        <ele>85.67</ele>
        <time>2022-03-07T15:05:49.999Z</time>
      </trkpt>
      <trkpt lat="49.46389" lon="3.57176">
        <ele>85.07</ele>
        <time>2022-03-07T15:05:59.382Z</time>
      </trkpt>
      <trkpt lat="49.46386" lon="3.57164">
        <ele>84.51</ele>
        <time>2022-03-07T15:06:08.999Z</time>
      </trkpt>
      <trkpt lat="49.46383" lon="3.57142">
        <ele>84.04</ele>
        <time>2022-03-07T15:06:18.999Z</time>
      </trkpt>
      <trkpt lat="49.46382" lon="3.57123">
        <ele>83.35</ele>
        <time>2022-03-07T15:06:28.663Z</time>
      </trkpt>
      <trkpt lat="49.4638" lon="3.57107">
        <ele>82.69</ele>
        <time>2022-03-07T15:06:38.141Z</time>
      </trkpt>
      <trkpt lat="49.46379" lon="3.57091">
        <ele>82.07</ele>
        <time>2022-03-07T15:06:47.999Z</time>
      </trkpt>
      <trkpt lat="49.46379" lon="3.57076">
        <ele>81.54</ele>
        <time>2022-03-07T15:06:58.125Z</time>
      </trkpt>
      <trkpt lat="49.46382" lon="3.57063">
        <ele>81.2</ele>
        <time>2022-03-07T15:07:07.137Z</time>
      </trkpt>
      <trkpt lat="49.46384" lon="3.57046">
        <ele>80.55</ele>
        <time>2022-03-07T15:07:17.204Z</time>
      </trkpt>
      <trkpt lat="49.46384" lon="3.57026">
        <ele>80.36</ele>
        <time>2022-03-07T15:07:27.299Z</time>
      </trkpt>
      <trkpt lat="49.46386" lon="3.57011">
        <ele>80.54</ele>
        <time>2022-03-07T15:07:36.361Z</time>
      </trkpt>
      <trkpt lat="49.46387" lon="3.56998">
        <ele>80.7</ele>
        <time>2022-03-07T15:07:45.420Z</time>
      </trkpt>
      <trkpt lat="49.46388" lon="3.56981">
        <ele>81.04</ele>
        <time>2022-03-07T15:07:55.999Z</time>
      </trkpt>
      <trkpt lat="49.4639" lon="3.56964">
        <ele>81.24</ele>
        <time>2022-03-07T15:08:05.999Z</time>
      </trkpt>
      <trkpt lat="49.46392" lon="3.5695">
        <ele>81.26</ele>
        <time>2022-03-07T15:08:15.023Z</time>
      </trkpt>
      <trkpt lat="49.46394" lon="3.56937">
        <ele>80.83</ele>
        <time>2022-03-07T15:08:24.999Z</time>
      </trkpt>
      <trkpt lat="49.46396" lon="3.56918">
        <ele>80.65</ele>
        <time>2022-03-07T15:08:34.566Z</time>
      </trkpt>
      <trkpt lat="49.464" lon="3.569">
        <ele>80.76</ele>
        <time>2022-03-07T15:08:44.448Z</time>
      </trkpt>
      <trkpt lat="49.46401" lon="3.56884">
        <ele>80.96</ele>
        <time>2022-03-07T15:08:53.999Z</time>
      </trkpt>
      <trkpt lat="49.46402" lon="3.5687">
        <ele>81.24</ele>
        <time>2022-03-07T15:09:03.205Z</time>
      </trkpt>
      <trkpt lat="49.46404" lon="3.56857">
        <ele>81.31</ele>
        <time>2022-03-07T15:09:12.206Z</time>
      </trkpt>
      <trkpt lat="49.46408" lon="3.56834">
        <ele>81.05</ele>
        <time>2022-03-07T15:09:21.721Z</time>
      </trkpt>
      <trkpt lat="49.46413" lon="3.56809">
        <ele>80.51</ele>
        <time>2022-03-07T15:09:31.279Z</time>
      </trkpt>
      <trkpt lat="49.46416" lon="3.56787">
        <ele>79.7</ele>
        <time>2022-03-07T15:09:41.198Z</time>
      </trkpt>
      <trkpt lat="49.46422" lon="3.56771">
        <ele>79.12</ele>
        <time>2022-03-07T15:09:50.463Z</time>
      </trkpt>
      <trkpt lat="49.46429" lon="3.56755">
        <ele>79.29</ele>
        <time>2022-03-07T15:09:59.724Z</time>
      </trkpt>
      <trkpt lat="49.46435" lon="3.56746">
        <ele>79.96</ele>
        <time>2022-03-07T15:10:08.999Z</time>
      </trkpt>
      <trkpt lat="49.46442" lon="3.5673">
        <ele>80.21</ele>
        <time>2022-03-07T15:10:18.278Z</time>
      </trkpt>
      <trkpt lat="49.46447" lon="3.5671">
        <ele>80.19</ele>
        <time>2022-03-07T15:10:27.864Z</time>
      </trkpt>
      <trkpt lat="49.4645" lon="3.56695">
        <ele>80.15</ele>
        <time>2022-03-07T15:10:37.999Z</time>
      </trkpt>
      <trkpt lat="49.46453" lon="3.56677">
        <ele>80.27</ele>
        <time>2022-03-07T15:10:47.120Z</time>
      </trkpt>
      <trkpt lat="49.46459" lon="3.56666">
        <ele>80.37</ele>
        <time>2022-03-07T15:10:56.264Z</time>
      </trkpt>
      <trkpt lat="49.46462" lon="3.56652">
        <ele>80.55</ele>
        <time>2022-03-07T15:11:05.999Z</time>
      </trkpt>
      <trkpt lat="49.46464" lon="3.56632">
        <ele>80.72</ele>
        <time>2022-03-07T15:11:15.146Z</time>
      </trkpt>
      <trkpt lat="49.46469" lon="3.56615">
        <ele>80.8</ele>
        <time>2022-03-07T15:11:24.364Z</time>
      </trkpt>
      <trkpt lat="49.46472" lon="3.56599">
        <ele>80.72</ele>
        <time>2022-03-07T15:11:33.999Z</time>
      </trkpt>
      <trkpt lat="49.46476" lon="3.56579">
        <ele>80.58</ele>
        <time>2022-03-07T15:11:43.108Z</time>
      </trkpt>
      <trkpt lat="49.46478" lon="3.56563">
        <ele>80.51</ele>
        <time>2022-03-07T15:11:52.999Z</time>
      </trkpt>
      <trkpt lat="49.46486" lon="3.56546">
        <ele>80.29</ele>
        <time>2022-03-07T15:12:02.523Z</time>
      </trkpt>
      <trkpt lat="49.46491" lon="3.56531">
        <ele>80.47</ele>
        <time>2022-03-07T15:12:12.105Z</time>
      </trkpt>
      <trkpt lat="49.46493" lon="3.5651">
        <ele>80.78</ele>
        <time>2022-03-07T15:12:21.122Z</time>
      </trkpt>
      <trkpt lat="49.46496" lon="3.56492">
        <ele>81.17</ele>
        <time>2022-03-07T15:12:30.156Z</time>
      </trkpt>
      <trkpt lat="49.46501" lon="3.56476">
        <ele>81.61</ele>
        <time>2022-03-07T15:12:39.999Z</time>
      </trkpt>
      <trkpt lat="49.46506" lon="3.56462">
        <ele>81.82</ele>
        <time>2022-03-07T15:12:49.222Z</time>
      </trkpt>
      <trkpt lat="49.4651" lon="3.56446">
        <ele>81.9</ele>
        <time>2022-03-07T15:12:58.327Z</time>
      </trkpt>
      <trkpt lat="49.46512" lon="3.56429">
        <ele>81.92</ele>
        <time>2022-03-07T15:13:07.421Z</time>
      </trkpt>
      <trkpt lat="49.46518" lon="3.56412">
        <ele>82.21</ele>
        <time>2022-03-07T15:13:16.879Z</time>
      </trkpt>
      <trkpt lat="49.46523" lon="3.56393">
        <ele>82.82</ele>
        <time>2022-03-07T15:13:26.302Z</time>
      </trkpt>
      <trkpt lat="49.46528" lon="3.56378">
        <ele>82.81</ele>
        <time>2022-03-07T15:13:35.325Z</time>
      </trkpt>
      <trkpt lat="49.46532" lon="3.56359">
        <ele>65.2</ele>
        <time>2022-03-07T15:13:45.122Z</time>
      </trkpt>
      <trkpt lat="49.46535" lon="3.56341">
        <ele>65.2</ele>
        <time>2022-03-07T15:13:54.763Z</time>
      </trkpt>
      <trkpt lat="49.46539" lon="3.56324">
        <ele>65.2</ele>
        <time>2022-03-07T15:14:03.879Z</time>
      </trkpt>
      <trkpt lat="49.46543" lon="3.56305">
        <ele>65.2</ele>
        <time>2022-03-07T15:14:13.999Z</time>
      </trkpt>
      <trkpt lat="49.46548" lon="3.56283">
        <ele>65.2</ele>
        <time>2022-03-07T15:14:24.147Z</time>
      </trkpt>
      <trkpt lat="49.46553" lon="3.56265">
        <ele>65.2</ele>
        <time>2022-03-07T15:14:33.581Z</time>
      </trkpt>
      <trkpt lat="49.46556" lon="3.56248">
        <ele>65.21</ele>
        <time>2022-03-07T15:14:43.022Z</time>
      </trkpt>
      <trkpt lat="49.4656" lon="3.56229">
        <ele>65.21</ele>
        <time>2022-03-07T15:14:52.999Z</time>
      </trkpt>
      <trkpt lat="49.46565" lon="3.56212">
        <ele>65.21</ele>
        <time>2022-03-07T15:15:02.999Z</time>
      </trkpt>
      <trkpt lat="49.46571" lon="3.56196">
        <ele>65.21</ele>
        <time>2022-03-07T15:15:12.999Z</time>
      </trkpt>
      <trkpt lat="49.46577" lon="3.56184">
        <ele>65.21</ele>
        <time>2022-03-07T15:15:22.019Z</time>
      </trkpt>
      <trkpt lat="49.46582" lon="3.5617">
        <ele>65.21</ele>
        <time>2022-03-07T15:15:31.521Z</time>
      </trkpt>
      <trkpt lat="49.46588" lon="3.56155">
        <ele>65.21</ele>
        <time>2022-03-07T15:15:40.938Z</time>
      </trkpt>
      <trkpt lat="49.46591" lon="3.56137">
        <ele>65.21</ele>
        <time>2022-03-07T15:15:50.242Z</time>
      </trkpt>
      <trkpt lat="49.46596" lon="3.56119">
        <ele>65.21</ele>
        <time>2022-03-07T15:15:59.705Z</time>
      </trkpt>
      <trkpt lat="49.46599" lon="3.56103">
        <ele>65.21</ele>
        <time>2022-03-07T15:16:08.999Z</time>
      </trkpt>
      <trkpt lat="49.46602" lon="3.56082">
        <ele>65.21</ele>
        <time>2022-03-07T15:16:18.218Z</time>
      </trkpt>
      <trkpt lat="49.46606" lon="3.56065">
        <ele>65.21</ele>
        <time>2022-03-07T15:16:27.577Z</time>
      </trkpt>
      <trkpt lat="49.46609" lon="3.56047">
        <ele>65.21</ele>
        <time>2022-03-07T15:16:36.999Z</time>
      </trkpt>
      <trkpt lat="49.46614" lon="3.56028">
        <ele>65.21</ele>
        <time>2022-03-07T15:16:46.999Z</time>
      </trkpt>
      <trkpt lat="49.46618" lon="3.56007">
        <ele>65.21</ele>
        <time>2022-03-07T15:16:56.999Z</time>
      </trkpt>
      <trkpt lat="49.46623" lon="3.55986">
        <ele>82.01</ele>
        <time>2022-03-07T15:17:06.999Z</time>
      </trkpt>
      <trkpt lat="49.46627" lon="3.55965">
        <ele>81.39</ele>
        <time>2022-03-07T15:17:16.226Z</time>
      </trkpt>
      <trkpt lat="49.46634" lon="3.55951">
        <ele>81.13</ele>
        <time>2022-03-07T15:17:25.583Z</time>
      </trkpt>
      <trkpt lat="49.46636" lon="3.55933">
        <ele>80.98</ele>
        <time>2022-03-07T15:17:35.126Z</time>
      </trkpt>
      <trkpt lat="49.46636" lon="3.55924">
        <ele>80.84</ele>
        <time>2022-03-07T15:17:44.999Z</time>
      </trkpt>
      <trkpt lat="49.46642" lon="3.55902">
        <ele>81.18</ele>
        <time>2022-03-07T15:17:54.999Z</time>
      </trkpt>
      <trkpt lat="49.46649" lon="3.55876">
        <ele>81.62</ele>
        <time>2022-03-07T15:18:04.120Z</time>
      </trkpt>
      <trkpt lat="49.46654" lon="3.55858">
        <ele>81.88</ele>
        <time>2022-03-07T15:18:13.999Z</time>
      </trkpt>
      <trkpt lat="49.46659" lon="3.55841">
        <ele>81.68</ele>
        <time>2022-03-07T15:18:23.599Z</time>
      </trkpt>
      <trkpt lat="49.46664" lon="3.55824">
        <ele>81.53</ele>
        <time>2022-03-07T15:18:32.999Z</time>
      </trkpt>
      <trkpt lat="49.46667" lon="3.55807">
        <ele>81.2</ele>
        <time>2022-03-07T15:18:42.469Z</time>
      </trkpt>
      <trkpt lat="49.46672" lon="3.5579">
        <ele>81.03</ele>
        <time>2022-03-07T15:18:51.999Z</time>
      </trkpt>
      <trkpt lat="49.46677" lon="3.55771">
        <ele>80.69</ele>
        <time>2022-03-07T15:19:01.341Z</time>
      </trkpt>
      <trkpt lat="49.46683" lon="3.55756">
        <ele>80.43</ele>
        <time>2022-03-07T15:19:11.145Z</time>
      </trkpt>
      <trkpt lat="49.46687" lon="3.55736">
        <ele>79.99</ele>
        <time>2022-03-07T15:19:20.559Z</time>
      </trkpt>
      <trkpt lat="49.4669" lon="3.55716">
        <ele>79.55</ele>
        <time>2022-03-07T15:19:30.124Z</time>
      </trkpt>
      <trkpt lat="49.46693" lon="3.55693">
        <ele>79.09</ele>
        <time>2022-03-07T15:19:40.218Z</time>
      </trkpt>
      <trkpt lat="49.46698" lon="3.55674">
        <ele>79.22</ele>
        <time>2022-03-07T15:19:49.580Z</time>
      </trkpt>
      <trkpt lat="49.46704" lon="3.5566">
        <ele>79.74</ele>
        <time>2022-03-07T15:19:58.999Z</time>
      </trkpt>
      <trkpt lat="49.4671" lon="3.55643">
        <ele>80.05</ele>
        <time>2022-03-07T15:20:08.324Z</time>
      </trkpt>
      <trkpt lat="49.46715" lon="3.55626">
        <ele>79.97</ele>
        <time>2022-03-07T15:20:18.164Z</time>
      </trkpt>
      <trkpt lat="49.46719" lon="3.55608">
        <ele>79.45</ele>
        <time>2022-03-07T15:20:27.999Z</time>
      </trkpt>
      <trkpt lat="49.46724" lon="3.5559">
        <ele>78.82</ele>
        <time>2022-03-07T15:20:37.563Z</time>
      </trkpt>
      <trkpt lat="49.46728" lon="3.55573">
        <ele>78.7</ele>
        <time>2022-03-07T15:20:46.906Z</time>
      </trkpt>
      <trkpt lat="49.46735" lon="3.5556">
        <ele>78.63</ele>
        <time>2022-03-07T15:20:56.121Z</time>
      </trkpt>
      <trkpt lat="49.46742" lon="3.55558">
        <ele>78.53</ele>
        <time>2022-03-07T15:21:05.999Z</time>
      </trkpt>
      <trkpt lat="49.46739" lon="3.55547">
        <ele>78.67</ele>
        <time>2022-03-07T15:21:15.438Z</time>
      </trkpt>
      <trkpt lat="49.46738" lon="3.55524">
        <ele>78.85</ele>
        <time>2022-03-07T15:21:24.884Z</time>
      </trkpt>
      <trkpt lat="49.4674" lon="3.55499">
        <ele>79.08</ele>
        <time>2022-03-07T15:21:34.339Z</time>
      </trkpt>
      <trkpt lat="49.46745" lon="3.55471">
        <ele>79.43</ele>
        <time>2022-03-07T15:21:43.843Z</time>
      </trkpt>
      <trkpt lat="49.46752" lon="3.55452">
        <ele>79.9</ele>
        <time>2022-03-07T15:21:53.306Z</time>
      </trkpt>
      <trkpt lat="49.46759" lon="3.55438">
        <ele>80.24</ele>
        <time>2022-03-07T15:22:02.762Z</time>
      </trkpt>
      <trkpt lat="49.46766" lon="3.55425">
        <ele>80.41</ele>
        <time>2022-03-07T15:22:12.145Z</time>
      </trkpt>
      <trkpt lat="49.46773" lon="3.55409">
        <ele>80.65</ele>
        <time>2022-03-07T15:22:21.561Z</time>
      </trkpt>
      <trkpt lat="49.46778" lon="3.55392">
        <ele>67.21</ele>
        <time>2022-03-07T15:22:31.021Z</time>
      </trkpt>
      <trkpt lat="49.46786" lon="3.55379">
        <ele>67.21</ele>
        <time>2022-03-07T15:22:40.999Z</time>
      </trkpt>
      <trkpt lat="49.46794" lon="3.55363">
        <ele>67.21</ele>
        <time>2022-03-07T15:22:51.116Z</time>
      </trkpt>
      <trkpt lat="49.46802" lon="3.55346">
        <ele>68.56</ele>
        <time>2022-03-07T15:23:01.100Z</time>
      </trkpt>
      <trkpt lat="49.46809" lon="3.5533">
        <ele>69.01</ele>
        <time>2022-03-07T15:23:11.091Z</time>
      </trkpt>
      <trkpt lat="49.46816" lon="3.55315">
        <ele>69.01</ele>
        <time>2022-03-07T15:23:20.999Z</time>
      </trkpt>
      <trkpt lat="49.46824" lon="3.55302">
        <ele>66.16</ele>
        <time>2022-03-07T15:23:30.278Z</time>
      </trkpt>
      <trkpt lat="49.46833" lon="3.55289">
        <ele>68.51</ele>
        <time>2022-03-07T15:23:39.364Z</time>
      </trkpt>
      <trkpt lat="49.46842" lon="3.55279">
        <ele>69.01</ele>
        <time>2022-03-07T15:23:48.800Z</time>
      </trkpt>
      <trkpt lat="49.46851" lon="3.55269">
        <ele>69.01</ele>
        <time>2022-03-07T15:23:57.805Z</time>
      </trkpt>
      <trkpt lat="49.46861" lon="3.55256">
        <ele>69.71</ele>
        <time>2022-03-07T15:24:07.239Z</time>
      </trkpt>
      <trkpt lat="49.46869" lon="3.55245">
        <ele>79.31</ele>
        <time>2022-03-07T15:24:16.999Z</time>
      </trkpt>
      <trkpt lat="49.46879" lon="3.5523">
        <ele>67.21</ele>
        <time>2022-03-07T15:24:26.999Z</time>
      </trkpt>
      <trkpt lat="49.46887" lon="3.55217">
        <ele>31.31</ele>
        <time>2022-03-07T15:24:36.242Z</time>
      </trkpt>
      <trkpt lat="49.46899" lon="3.55215">
        <ele>60.11</ele>
        <time>2022-03-07T15:24:46.203Z</time>
      </trkpt>
      <trkpt lat="49.46907" lon="3.55227">
        <ele>67.21</ele>
        <time>2022-03-07T15:24:55.322Z</time>
      </trkpt>
      <trkpt lat="49.46912" lon="3.55235">
        <ele>67.21</ele>
        <time>2022-03-07T15:25:04.337Z</time>
      </trkpt>
      <trkpt lat="49.46918" lon="3.5524">
        <ele>67.21</ele>
        <time>2022-03-07T15:25:13.784Z</time>
      </trkpt>
      <trkpt lat="49.46929" lon="3.55243">
        <ele>67.21</ele>
        <time>2022-03-07T15:25:23.281Z</time>
      </trkpt>
      <trkpt lat="49.46939" lon="3.55249">
        <ele>67.21</ele>
        <time>2022-03-07T15:25:32.325Z</time>
      </trkpt>
      <trkpt lat="49.46948" lon="3.55259">
        <ele>65.22</ele>
        <time>2022-03-07T15:25:41.362Z</time>
      </trkpt>
      <trkpt lat="49.46957" lon="3.5526">
        <ele>31.31</ele>
        <time>2022-03-07T15:25:51.999Z</time>
      </trkpt>
      <trkpt lat="49.46964" lon="3.55243">
        <ele>65.21</ele>
        <time>2022-03-07T15:26:02.202Z</time>
      </trkpt>
      <trkpt lat="49.46965" lon="3.55226">
        <ele>65.21</ele>
        <time>2022-03-07T15:26:12.163Z</time>
      </trkpt>
      <trkpt lat="49.4697" lon="3.55207">
        <ele>65.21</ele>
        <time>2022-03-07T15:26:21.702Z</time>
      </trkpt>
      <trkpt lat="49.46977" lon="3.55188">
        <ele>65.21</ele>
        <time>2022-03-07T15:26:31.246Z</time>
      </trkpt>
      <trkpt lat="49.4699" lon="3.55193">
        <ele>65.21</ele>
        <time>2022-03-07T15:26:40.762Z</time>
      </trkpt>
      <trkpt lat="49.46998" lon="3.55202">
        <ele>31.31</ele>
        <time>2022-03-07T15:26:49.923Z</time>
      </trkpt>
      <trkpt lat="49.47005" lon="3.55211">
        <ele>65.21</ele>
        <time>2022-03-07T15:26:58.991Z</time>
      </trkpt>
      <trkpt lat="49.47014" lon="3.5522">
        <ele>65.21</ele>
        <time>2022-03-07T15:27:08.121Z</time>
      </trkpt>
      <trkpt lat="49.47024" lon="3.55227">
        <ele>65.21</ele>
        <time>2022-03-07T15:27:17.327Z</time>
      </trkpt>
      <trkpt lat="49.47035" lon="3.55232">
        <ele>65.21</ele>
        <time>2022-03-07T15:27:26.999Z</time>
      </trkpt>
      <trkpt lat="49.47046" lon="3.55241">
        <ele>65.21</ele>
        <time>2022-03-07T15:27:37.386Z</time>
      </trkpt>
      <trkpt lat="49.47055" lon="3.55248">
        <ele>65.21</ele>
        <time>2022-03-07T15:27:46.999Z</time>
      </trkpt>
      <trkpt lat="49.47063" lon="3.55252">
        <ele>65.21</ele>
        <time>2022-03-07T15:27:56.778Z</time>
      </trkpt>
      <trkpt lat="49.4707" lon="3.55251">
        <ele>45.91</ele>
        <time>2022-03-07T15:28:05.999Z</time>
      </trkpt>
      <trkpt lat="49.4707" lon="3.55246">
        <ele>31.54</ele>
        <time>2022-03-07T15:28:15.999Z</time>
      </trkpt>
      <trkpt lat="49.47073" lon="3.55245">
        <ele>45.9</ele>
        <time>2022-03-07T15:28:25.378Z</time>
      </trkpt>
      <trkpt lat="49.47074" lon="3.55244">
        <ele>31.31</ele>
        <time>2022-03-07T15:28:35.999Z</time>
      </trkpt>
      <trkpt lat="49.47075" lon="3.55243">
        <ele>45.91</ele>
        <time>2022-03-07T15:28:45.999Z</time>
      </trkpt>
      <trkpt lat="49.47075" lon="3.55242">
        <ele>45.91</ele>
        <time>2022-03-07T15:28:49.999Z</time>
      </trkpt>
    </trkseg>
  </trk>
</gpx>